<?xml version="1.0" encoding="UTF-8" standalone="no" ?>
<gpx xmlns="http://www.topografix.com/GPX/1/1" xmlns:xsi="http://www.w3.org/2001/XMLSchema-instance" xsi:schemaLocation="http://www.topografix.com/GPX/1/1 http://www.topografix.com/GPX/1/1/gpx.xsd" version="1.1" creator="VisuGPX - https://www.visugpx.com">
  <metadata>
    <name>TUBIZE 4 FEV</name>
    <desc><![CDATA[MARCHE ADEPS  TUBIZE 04 FEVRIER 2018.
TRES BEAU CIRCUIT DE 10KMS DIRECTION CLABECQ.]]></desc>
  </metadata>
  <trk>
    <name><![CDATA[TUBIZE2-04 11:16:28]]></name>
    <trkseg>
      <trkpt lat="50.6844" lon="4.20126">
        <ele>39.55</ele>
        <time>2018-02-04T08:13:17Z</time>
      </trkpt>
      <trkpt lat="50.6844" lon="4.20126">
        <ele>39.55</ele>
        <time>2018-02-04T08:13:18Z</time>
      </trkpt>
      <trkpt lat="50.68443" lon="4.20136">
        <ele>39.07</ele>
        <time>2018-02-04T08:13:30Z</time>
      </trkpt>
      <trkpt lat="50.68445" lon="4.20145">
        <ele>38.11</ele>
        <time>2018-02-04T08:13:39Z</time>
      </trkpt>
      <trkpt lat="50.68447" lon="4.20149">
        <ele>38.11</ele>
        <time>2018-02-04T08:13:41Z</time>
      </trkpt>
      <trkpt lat="50.68451" lon="4.20156">
        <ele>39.07</ele>
        <time>2018-02-04T08:13:52Z</time>
      </trkpt>
      <trkpt lat="50.68464" lon="4.20173">
        <ele>39.07</ele>
        <time>2018-02-04T08:14:12Z</time>
      </trkpt>
      <trkpt lat="50.68476" lon="4.20204">
        <ele>39.07</ele>
        <time>2018-02-04T08:14:29Z</time>
      </trkpt>
      <trkpt lat="50.68477" lon="4.20206">
        <ele>39.07</ele>
        <time>2018-02-04T08:14:31Z</time>
      </trkpt>
      <trkpt lat="50.68489" lon="4.20214">
        <ele>38.11</ele>
        <time>2018-02-04T08:14:44Z</time>
      </trkpt>
      <trkpt lat="50.68505" lon="4.20218">
        <ele>37.63</ele>
        <time>2018-02-04T08:14:57Z</time>
      </trkpt>
      <trkpt lat="50.68518" lon="4.20227">
        <ele>37.63</ele>
        <time>2018-02-04T08:15:10Z</time>
      </trkpt>
      <trkpt lat="50.68536" lon="4.20238">
        <ele>37.63</ele>
        <time>2018-02-04T08:15:23Z</time>
      </trkpt>
      <trkpt lat="50.68549" lon="4.20238">
        <ele>37.63</ele>
        <time>2018-02-04T08:15:34Z</time>
      </trkpt>
      <trkpt lat="50.68554" lon="4.20242">
        <ele>37.63</ele>
        <time>2018-02-04T08:15:40Z</time>
      </trkpt>
      <trkpt lat="50.68557" lon="4.20244">
        <ele>37.63</ele>
        <time>2018-02-04T08:15:42Z</time>
      </trkpt>
      <trkpt lat="50.68566" lon="4.20259">
        <ele>39.55</ele>
        <time>2018-02-04T08:15:54Z</time>
      </trkpt>
      <trkpt lat="50.68566" lon="4.20265">
        <ele>40.03</ele>
        <time>2018-02-04T08:16:00Z</time>
      </trkpt>
      <trkpt lat="50.68554" lon="4.20287">
        <ele>40.51</ele>
        <time>2018-02-04T08:16:17Z</time>
      </trkpt>
      <trkpt lat="50.68532" lon="4.203">
        <ele>40.51</ele>
        <time>2018-02-04T08:16:29Z</time>
      </trkpt>
      <trkpt lat="50.68504" lon="4.20311">
        <ele>40.51</ele>
        <time>2018-02-04T08:16:48Z</time>
      </trkpt>
      <trkpt lat="50.68498" lon="4.2031">
        <ele>40.99</ele>
        <time>2018-02-04T08:16:53Z</time>
      </trkpt>
      <trkpt lat="50.68481" lon="4.20309">
        <ele>40.99</ele>
        <time>2018-02-04T08:17:08Z</time>
      </trkpt>
      <trkpt lat="50.68471" lon="4.2033">
        <ele>42.44</ele>
        <time>2018-02-04T08:17:24Z</time>
      </trkpt>
      <trkpt lat="50.6847" lon="4.20334">
        <ele>42.92</ele>
        <time>2018-02-04T08:17:26Z</time>
      </trkpt>
      <trkpt lat="50.68469" lon="4.20349">
        <ele>43.4</ele>
        <time>2018-02-04T08:17:34Z</time>
      </trkpt>
      <trkpt lat="50.68469" lon="4.20358">
        <ele>43.88</ele>
        <time>2018-02-04T08:17:40Z</time>
      </trkpt>
      <trkpt lat="50.68469" lon="4.20387">
        <ele>45.8</ele>
        <time>2018-02-04T08:17:55Z</time>
      </trkpt>
      <trkpt lat="50.6847" lon="4.20407">
        <ele>47.24</ele>
        <time>2018-02-04T08:18:07Z</time>
      </trkpt>
      <trkpt lat="50.68471" lon="4.20436">
        <ele>49.16</ele>
        <time>2018-02-04T08:18:22Z</time>
      </trkpt>
      <trkpt lat="50.68471" lon="4.20438">
        <ele>49.16</ele>
        <time>2018-02-04T08:18:23Z</time>
      </trkpt>
      <trkpt lat="50.68468" lon="4.20458">
        <ele>51.09</ele>
        <time>2018-02-04T08:18:33Z</time>
      </trkpt>
      <trkpt lat="50.68459" lon="4.20488">
        <ele>53.01</ele>
        <time>2018-02-04T08:18:50Z</time>
      </trkpt>
      <trkpt lat="50.68457" lon="4.20507">
        <ele>54.45</ele>
        <time>2018-02-04T08:19:02Z</time>
      </trkpt>
      <trkpt lat="50.68461" lon="4.2052">
        <ele>55.41</ele>
        <time>2018-02-04T08:19:10Z</time>
      </trkpt>
      <trkpt lat="50.68477" lon="4.20529">
        <ele>56.86</ele>
        <time>2018-02-04T08:19:24Z</time>
      </trkpt>
      <trkpt lat="50.68496" lon="4.20538">
        <ele>58.3</ele>
        <time>2018-02-04T08:19:39Z</time>
      </trkpt>
      <trkpt lat="50.68509" lon="4.20546">
        <ele>59.26</ele>
        <time>2018-02-04T08:19:53Z</time>
      </trkpt>
      <trkpt lat="50.68514" lon="4.20547">
        <ele>59.26</ele>
        <time>2018-02-04T08:19:58Z</time>
      </trkpt>
      <trkpt lat="50.68529" lon="4.20553">
        <ele>60.22</ele>
        <time>2018-02-04T08:20:12Z</time>
      </trkpt>
      <trkpt lat="50.68546" lon="4.20565">
        <ele>61.66</ele>
        <time>2018-02-04T08:20:25Z</time>
      </trkpt>
      <trkpt lat="50.68553" lon="4.2057">
        <ele>62.14</ele>
        <time>2018-02-04T08:20:31Z</time>
      </trkpt>
      <trkpt lat="50.68562" lon="4.20586">
        <ele>64.07</ele>
        <time>2018-02-04T08:20:40Z</time>
      </trkpt>
      <trkpt lat="50.68563" lon="4.20589">
        <ele>64.07</ele>
        <time>2018-02-04T08:20:42Z</time>
      </trkpt>
      <trkpt lat="50.68572" lon="4.20613">
        <ele>65.51</ele>
        <time>2018-02-04T08:20:56Z</time>
      </trkpt>
      <trkpt lat="50.68578" lon="4.20635">
        <ele>67.43</ele>
        <time>2018-02-04T08:21:09Z</time>
      </trkpt>
      <trkpt lat="50.6858" lon="4.20639">
        <ele>67.43</ele>
        <time>2018-02-04T08:21:11Z</time>
      </trkpt>
      <trkpt lat="50.68581" lon="4.2064">
        <ele>67.91</ele>
        <time>2018-02-04T08:21:12Z</time>
      </trkpt>
      <trkpt lat="50.68583" lon="4.20653">
        <ele>67.91</ele>
        <time>2018-02-04T08:21:19Z</time>
      </trkpt>
      <trkpt lat="50.68588" lon="4.2068">
        <ele>68.39</ele>
        <time>2018-02-04T08:21:33Z</time>
      </trkpt>
      <trkpt lat="50.68594" lon="4.20705">
        <ele>68.87</ele>
        <time>2018-02-04T08:21:46Z</time>
      </trkpt>
      <trkpt lat="50.68596" lon="4.20718">
        <ele>69.35</ele>
        <time>2018-02-04T08:21:53Z</time>
      </trkpt>
      <trkpt lat="50.68601" lon="4.20746">
        <ele>69.83</ele>
        <time>2018-02-04T08:22:07Z</time>
      </trkpt>
      <trkpt lat="50.68603" lon="4.20751">
        <ele>69.83</ele>
        <time>2018-02-04T08:22:11Z</time>
      </trkpt>
      <trkpt lat="50.68607" lon="4.20757">
        <ele>69.83</ele>
        <time>2018-02-04T08:22:25Z</time>
      </trkpt>
      <trkpt lat="50.68631" lon="4.20755">
        <ele>69.83</ele>
        <time>2018-02-04T08:22:41Z</time>
      </trkpt>
      <trkpt lat="50.68639" lon="4.20746">
        <ele>69.83</ele>
        <time>2018-02-04T08:22:52Z</time>
      </trkpt>
      <trkpt lat="50.68656" lon="4.20743">
        <ele>69.83</ele>
        <time>2018-02-04T08:23:06Z</time>
      </trkpt>
      <trkpt lat="50.68666" lon="4.20733">
        <ele>69.83</ele>
        <time>2018-02-04T08:23:17Z</time>
      </trkpt>
      <trkpt lat="50.68692" lon="4.20715">
        <ele>69.83</ele>
        <time>2018-02-04T08:23:28Z</time>
      </trkpt>
      <trkpt lat="50.68698" lon="4.20709">
        <ele>68.39</ele>
        <time>2018-02-04T08:23:37Z</time>
      </trkpt>
      <trkpt lat="50.68703" lon="4.20706">
        <ele>68.39</ele>
        <time>2018-02-04T08:23:44Z</time>
      </trkpt>
      <trkpt lat="50.68716" lon="4.20701">
        <ele>68.39</ele>
        <time>2018-02-04T08:23:54Z</time>
      </trkpt>
      <trkpt lat="50.68718" lon="4.20699">
        <ele>68.39</ele>
        <time>2018-02-04T08:23:56Z</time>
      </trkpt>
      <trkpt lat="50.68731" lon="4.20689">
        <ele>67.43</ele>
        <time>2018-02-04T08:24:11Z</time>
      </trkpt>
      <trkpt lat="50.68741" lon="4.20684">
        <ele>67.43</ele>
        <time>2018-02-04T08:24:24Z</time>
      </trkpt>
      <trkpt lat="50.68766" lon="4.20667">
        <ele>66.95</ele>
        <time>2018-02-04T08:24:35Z</time>
      </trkpt>
      <trkpt lat="50.68772" lon="4.20665">
        <ele>66.95</ele>
        <time>2018-02-04T08:24:39Z</time>
      </trkpt>
      <trkpt lat="50.68777" lon="4.20662">
        <ele>66.95</ele>
        <time>2018-02-04T08:24:42Z</time>
      </trkpt>
      <trkpt lat="50.6879" lon="4.20659">
        <ele>65.99</ele>
        <time>2018-02-04T08:24:54Z</time>
      </trkpt>
      <trkpt lat="50.68803" lon="4.20658">
        <ele>65.51</ele>
        <time>2018-02-04T08:25:01Z</time>
      </trkpt>
      <trkpt lat="50.68808" lon="4.20659">
        <ele>65.51</ele>
        <time>2018-02-04T08:25:03Z</time>
      </trkpt>
      <trkpt lat="50.68814" lon="4.20657">
        <ele>65.51</ele>
        <time>2018-02-04T08:25:07Z</time>
      </trkpt>
      <trkpt lat="50.68823" lon="4.20659">
        <ele>65.51</ele>
        <time>2018-02-04T08:25:16Z</time>
      </trkpt>
      <trkpt lat="50.68826" lon="4.20663">
        <ele>65.51</ele>
        <time>2018-02-04T08:25:19Z</time>
      </trkpt>
      <trkpt lat="50.68828" lon="4.20666">
        <ele>65.51</ele>
        <time>2018-02-04T08:25:21Z</time>
      </trkpt>
      <trkpt lat="50.68827" lon="4.20676">
        <ele>66.47</ele>
        <time>2018-02-04T08:25:27Z</time>
      </trkpt>
      <trkpt lat="50.6883" lon="4.20693">
        <ele>67.91</ele>
        <time>2018-02-04T08:25:34Z</time>
      </trkpt>
      <trkpt lat="50.68826" lon="4.20702">
        <ele>67.91</ele>
        <time>2018-02-04T08:25:39Z</time>
      </trkpt>
      <trkpt lat="50.68827" lon="4.2071">
        <ele>67.91</ele>
        <time>2018-02-04T08:25:43Z</time>
      </trkpt>
      <trkpt lat="50.68831" lon="4.2073">
        <ele>68.87</ele>
        <time>2018-02-04T08:25:55Z</time>
      </trkpt>
      <trkpt lat="50.68832" lon="4.20732">
        <ele>68.87</ele>
        <time>2018-02-04T08:25:57Z</time>
      </trkpt>
      <trkpt lat="50.68827" lon="4.20749">
        <ele>69.35</ele>
        <time>2018-02-04T08:26:05Z</time>
      </trkpt>
      <trkpt lat="50.68827" lon="4.2076">
        <ele>68.87</ele>
        <time>2018-02-04T08:26:11Z</time>
      </trkpt>
      <trkpt lat="50.68826" lon="4.20765">
        <ele>69.35</ele>
        <time>2018-02-04T08:26:14Z</time>
      </trkpt>
      <trkpt lat="50.68824" lon="4.20779">
        <ele>68.87</ele>
        <time>2018-02-04T08:26:19Z</time>
      </trkpt>
      <trkpt lat="50.68825" lon="4.20791">
        <ele>68.87</ele>
        <time>2018-02-04T08:26:24Z</time>
      </trkpt>
      <trkpt lat="50.6883" lon="4.20804">
        <ele>68.87</ele>
        <time>2018-02-04T08:26:30Z</time>
      </trkpt>
      <trkpt lat="50.68836" lon="4.20824">
        <ele>68.87</ele>
        <time>2018-02-04T08:26:42Z</time>
      </trkpt>
      <trkpt lat="50.68834" lon="4.20837">
        <ele>68.87</ele>
        <time>2018-02-04T08:26:49Z</time>
      </trkpt>
      <trkpt lat="50.68835" lon="4.20839">
        <ele>68.87</ele>
        <time>2018-02-04T08:26:50Z</time>
      </trkpt>
      <trkpt lat="50.68835" lon="4.20841">
        <ele>68.87</ele>
        <time>2018-02-04T08:26:51Z</time>
      </trkpt>
      <trkpt lat="50.68835" lon="4.20843">
        <ele>68.87</ele>
        <time>2018-02-04T08:26:52Z</time>
      </trkpt>
      <trkpt lat="50.68838" lon="4.20848">
        <ele>68.87</ele>
        <time>2018-02-04T08:26:54Z</time>
      </trkpt>
      <trkpt lat="50.68838" lon="4.20864">
        <ele>68.87</ele>
        <time>2018-02-04T08:27:04Z</time>
      </trkpt>
      <trkpt lat="50.68845" lon="4.20871">
        <ele>68.87</ele>
        <time>2018-02-04T08:27:08Z</time>
      </trkpt>
      <trkpt lat="50.68852" lon="4.20879">
        <ele>67.43</ele>
        <time>2018-02-04T08:27:12Z</time>
      </trkpt>
      <trkpt lat="50.68855" lon="4.20896">
        <ele>67.43</ele>
        <time>2018-02-04T08:27:20Z</time>
      </trkpt>
      <trkpt lat="50.68854" lon="4.209">
        <ele>67.43</ele>
        <time>2018-02-04T08:27:22Z</time>
      </trkpt>
      <trkpt lat="50.68859" lon="4.20929">
        <ele>66.47</ele>
        <time>2018-02-04T08:27:36Z</time>
      </trkpt>
      <trkpt lat="50.68847" lon="4.20963">
        <ele>64.55</ele>
        <time>2018-02-04T08:27:53Z</time>
      </trkpt>
      <trkpt lat="50.68843" lon="4.20971">
        <ele>64.55</ele>
        <time>2018-02-04T08:27:57Z</time>
      </trkpt>
      <trkpt lat="50.68836" lon="4.20981">
        <ele>64.07</ele>
        <time>2018-02-04T08:28:04Z</time>
      </trkpt>
      <trkpt lat="50.68826" lon="4.20997">
        <ele>62.62</ele>
        <time>2018-02-04T08:28:16Z</time>
      </trkpt>
      <trkpt lat="50.68819" lon="4.21012">
        <ele>61.66</ele>
        <time>2018-02-04T08:28:26Z</time>
      </trkpt>
      <trkpt lat="50.68815" lon="4.21035">
        <ele>60.22</ele>
        <time>2018-02-04T08:28:38Z</time>
      </trkpt>
      <trkpt lat="50.68814" lon="4.21038">
        <ele>60.22</ele>
        <time>2018-02-04T08:28:40Z</time>
      </trkpt>
      <trkpt lat="50.6881" lon="4.21052">
        <ele>59.26</ele>
        <time>2018-02-04T08:28:48Z</time>
      </trkpt>
      <trkpt lat="50.68821" lon="4.21079">
        <ele>59.26</ele>
        <time>2018-02-04T08:29:04Z</time>
      </trkpt>
      <trkpt lat="50.68838" lon="4.21096">
        <ele>57.82</ele>
        <time>2018-02-04T08:29:19Z</time>
      </trkpt>
      <trkpt lat="50.68855" lon="4.21117">
        <ele>56.37</ele>
        <time>2018-02-04T08:29:34Z</time>
      </trkpt>
      <trkpt lat="50.68874" lon="4.21136">
        <ele>54.93</ele>
        <time>2018-02-04T08:29:51Z</time>
      </trkpt>
      <trkpt lat="50.68896" lon="4.2116">
        <ele>53.49</ele>
        <time>2018-02-04T08:30:08Z</time>
      </trkpt>
      <trkpt lat="50.68906" lon="4.21177">
        <ele>52.53</ele>
        <time>2018-02-04T08:30:22Z</time>
      </trkpt>
      <trkpt lat="50.68923" lon="4.21199">
        <ele>51.09</ele>
        <time>2018-02-04T08:30:37Z</time>
      </trkpt>
      <trkpt lat="50.6894" lon="4.21222">
        <ele>49.65</ele>
        <time>2018-02-04T08:30:54Z</time>
      </trkpt>
      <trkpt lat="50.68959" lon="4.21253">
        <ele>48.68</ele>
        <time>2018-02-04T08:31:10Z</time>
      </trkpt>
      <trkpt lat="50.68967" lon="4.21279">
        <ele>47.24</ele>
        <time>2018-02-04T08:31:25Z</time>
      </trkpt>
      <trkpt lat="50.68983" lon="4.21303">
        <ele>45.32</ele>
        <time>2018-02-04T08:31:44Z</time>
      </trkpt>
      <trkpt lat="50.68995" lon="4.21325">
        <ele>43.88</ele>
        <time>2018-02-04T08:31:58Z</time>
      </trkpt>
      <trkpt lat="50.68998" lon="4.21337">
        <ele>42.92</ele>
        <time>2018-02-04T08:32:05Z</time>
      </trkpt>
      <trkpt lat="50.68984" lon="4.21368">
        <ele>41.95</ele>
        <time>2018-02-04T08:32:22Z</time>
      </trkpt>
      <trkpt lat="50.68973" lon="4.21391">
        <ele>40.51</ele>
        <time>2018-02-04T08:32:36Z</time>
      </trkpt>
      <trkpt lat="50.68965" lon="4.21409">
        <ele>39.55</ele>
        <time>2018-02-04T08:32:48Z</time>
      </trkpt>
      <trkpt lat="50.68951" lon="4.21431">
        <ele>38.59</ele>
        <time>2018-02-04T08:33:03Z</time>
      </trkpt>
      <trkpt lat="50.6895" lon="4.21439">
        <ele>38.11</ele>
        <time>2018-02-04T08:33:07Z</time>
      </trkpt>
      <trkpt lat="50.68947" lon="4.21449">
        <ele>38.11</ele>
        <time>2018-02-04T08:33:13Z</time>
      </trkpt>
      <trkpt lat="50.68936" lon="4.21471">
        <ele>37.15</ele>
        <time>2018-02-04T08:33:26Z</time>
      </trkpt>
      <trkpt lat="50.68927" lon="4.21496">
        <ele>35.71</ele>
        <time>2018-02-04T08:33:39Z</time>
      </trkpt>
      <trkpt lat="50.68926" lon="4.21499">
        <ele>35.23</ele>
        <time>2018-02-04T08:33:41Z</time>
      </trkpt>
      <trkpt lat="50.6892" lon="4.2153">
        <ele>34.74</ele>
        <time>2018-02-04T08:33:57Z</time>
      </trkpt>
      <trkpt lat="50.68915" lon="4.21555">
        <ele>34.74</ele>
        <time>2018-02-04T08:34:11Z</time>
      </trkpt>
      <trkpt lat="50.6891" lon="4.21563">
        <ele>34.74</ele>
        <time>2018-02-04T08:34:19Z</time>
      </trkpt>
      <trkpt lat="50.68897" lon="4.21579">
        <ele>34.74</ele>
        <time>2018-02-04T08:34:33Z</time>
      </trkpt>
      <trkpt lat="50.68892" lon="4.21586">
        <ele>34.74</ele>
        <time>2018-02-04T08:34:37Z</time>
      </trkpt>
      <trkpt lat="50.6889" lon="4.21589">
        <ele>34.74</ele>
        <time>2018-02-04T08:34:39Z</time>
      </trkpt>
      <trkpt lat="50.68875" lon="4.21611">
        <ele>34.26</ele>
        <time>2018-02-04T08:34:57Z</time>
      </trkpt>
      <trkpt lat="50.68874" lon="4.21613">
        <ele>34.26</ele>
        <time>2018-02-04T08:35:01Z</time>
      </trkpt>
      <trkpt lat="50.68868" lon="4.21627">
        <ele>34.26</ele>
        <time>2018-02-04T08:35:08Z</time>
      </trkpt>
      <trkpt lat="50.68859" lon="4.21652">
        <ele>34.26</ele>
        <time>2018-02-04T08:35:23Z</time>
      </trkpt>
      <trkpt lat="50.68856" lon="4.21658">
        <ele>33.78</ele>
        <time>2018-02-04T08:35:27Z</time>
      </trkpt>
      <trkpt lat="50.6885" lon="4.21685">
        <ele>33.78</ele>
        <time>2018-02-04T08:35:39Z</time>
      </trkpt>
      <trkpt lat="50.68844" lon="4.21711">
        <ele>33.78</ele>
        <time>2018-02-04T08:35:53Z</time>
      </trkpt>
      <trkpt lat="50.68832" lon="4.21748">
        <ele>33.78</ele>
        <time>2018-02-04T08:36:10Z</time>
      </trkpt>
      <trkpt lat="50.68822" lon="4.21782">
        <ele>33.78</ele>
        <time>2018-02-04T08:36:28Z</time>
      </trkpt>
      <trkpt lat="50.68815" lon="4.21811">
        <ele>33.3</ele>
        <time>2018-02-04T08:36:42Z</time>
      </trkpt>
      <trkpt lat="50.68807" lon="4.21852">
        <ele>34.74</ele>
        <time>2018-02-04T08:37:01Z</time>
      </trkpt>
      <trkpt lat="50.68807" lon="4.2186">
        <ele>35.71</ele>
        <time>2018-02-04T08:37:04Z</time>
      </trkpt>
      <trkpt lat="50.68807" lon="4.21865">
        <ele>35.71</ele>
        <time>2018-02-04T08:37:06Z</time>
      </trkpt>
      <trkpt lat="50.68809" lon="4.21898">
        <ele>36.67</ele>
        <time>2018-02-04T08:37:20Z</time>
      </trkpt>
      <trkpt lat="50.68811" lon="4.21933">
        <ele>37.63</ele>
        <time>2018-02-04T08:37:38Z</time>
      </trkpt>
      <trkpt lat="50.68813" lon="4.21963">
        <ele>38.59</ele>
        <time>2018-02-04T08:37:55Z</time>
      </trkpt>
      <trkpt lat="50.68814" lon="4.21992">
        <ele>39.07</ele>
        <time>2018-02-04T08:38:10Z</time>
      </trkpt>
      <trkpt lat="50.68816" lon="4.22023">
        <ele>39.55</ele>
        <time>2018-02-04T08:38:25Z</time>
      </trkpt>
      <trkpt lat="50.68819" lon="4.22053">
        <ele>40.03</ele>
        <time>2018-02-04T08:38:40Z</time>
      </trkpt>
      <trkpt lat="50.68825" lon="4.22072">
        <ele>40.03</ele>
        <time>2018-02-04T08:38:52Z</time>
      </trkpt>
      <trkpt lat="50.68826" lon="4.22073">
        <ele>40.03</ele>
        <time>2018-02-04T08:38:53Z</time>
      </trkpt>
      <trkpt lat="50.68843" lon="4.22081">
        <ele>40.03</ele>
        <time>2018-02-04T08:39:09Z</time>
      </trkpt>
      <trkpt lat="50.68855" lon="4.22078">
        <ele>38.59</ele>
        <time>2018-02-04T08:39:20Z</time>
      </trkpt>
      <trkpt lat="50.6887" lon="4.22063">
        <ele>38.59</ele>
        <time>2018-02-04T08:39:33Z</time>
      </trkpt>
      <trkpt lat="50.68887" lon="4.22059">
        <ele>38.11</ele>
        <time>2018-02-04T08:39:47Z</time>
      </trkpt>
      <trkpt lat="50.68889" lon="4.2206">
        <ele>38.11</ele>
        <time>2018-02-04T08:39:48Z</time>
      </trkpt>
      <trkpt lat="50.68898" lon="4.22065">
        <ele>38.11</ele>
        <time>2018-02-04T08:39:53Z</time>
      </trkpt>
      <trkpt lat="50.68901" lon="4.22068">
        <ele>38.11</ele>
        <time>2018-02-04T08:39:57Z</time>
      </trkpt>
      <trkpt lat="50.68906" lon="4.22071">
        <ele>38.11</ele>
        <time>2018-02-04T08:40:01Z</time>
      </trkpt>
      <trkpt lat="50.68915" lon="4.22082">
        <ele>38.11</ele>
        <time>2018-02-04T08:40:10Z</time>
      </trkpt>
      <trkpt lat="50.68922" lon="4.22091">
        <ele>40.03</ele>
        <time>2018-02-04T08:40:16Z</time>
      </trkpt>
      <trkpt lat="50.68939" lon="4.22107">
        <ele>41.47</ele>
        <time>2018-02-04T08:40:31Z</time>
      </trkpt>
      <trkpt lat="50.68951" lon="4.22118">
        <ele>42.44</ele>
        <time>2018-02-04T08:40:43Z</time>
      </trkpt>
      <trkpt lat="50.68958" lon="4.22123">
        <ele>42.92</ele>
        <time>2018-02-04T08:40:47Z</time>
      </trkpt>
      <trkpt lat="50.68959" lon="4.22126">
        <ele>42.92</ele>
        <time>2018-02-04T08:40:49Z</time>
      </trkpt>
      <trkpt lat="50.68966" lon="4.22136">
        <ele>43.4</ele>
        <time>2018-02-04T08:40:57Z</time>
      </trkpt>
      <trkpt lat="50.68968" lon="4.22139">
        <ele>43.4</ele>
        <time>2018-02-04T08:41:00Z</time>
      </trkpt>
      <trkpt lat="50.68974" lon="4.22147">
        <ele>43.88</ele>
        <time>2018-02-04T08:41:07Z</time>
      </trkpt>
      <trkpt lat="50.68986" lon="4.22165">
        <ele>44.84</ele>
        <time>2018-02-04T08:41:20Z</time>
      </trkpt>
      <trkpt lat="50.68989" lon="4.22181">
        <ele>45.32</ele>
        <time>2018-02-04T08:41:26Z</time>
      </trkpt>
      <trkpt lat="50.68995" lon="4.22191">
        <ele>46.28</ele>
        <time>2018-02-04T08:41:33Z</time>
      </trkpt>
      <trkpt lat="50.69006" lon="4.22209">
        <ele>46.28</ele>
        <time>2018-02-04T08:41:46Z</time>
      </trkpt>
      <trkpt lat="50.69011" lon="4.22215">
        <ele>46.76</ele>
        <time>2018-02-04T08:41:52Z</time>
      </trkpt>
      <trkpt lat="50.69016" lon="4.22226">
        <ele>47.24</ele>
        <time>2018-02-04T08:42:00Z</time>
      </trkpt>
      <trkpt lat="50.69028" lon="4.22242">
        <ele>48.2</ele>
        <time>2018-02-04T08:42:13Z</time>
      </trkpt>
      <trkpt lat="50.69029" lon="4.22243">
        <ele>48.2</ele>
        <time>2018-02-04T08:42:14Z</time>
      </trkpt>
      <trkpt lat="50.69037" lon="4.22249">
        <ele>49.16</ele>
        <time>2018-02-04T08:42:24Z</time>
      </trkpt>
      <trkpt lat="50.69045" lon="4.22253">
        <ele>49.65</ele>
        <time>2018-02-04T08:42:31Z</time>
      </trkpt>
      <trkpt lat="50.69054" lon="4.22268">
        <ele>50.61</ele>
        <time>2018-02-04T08:42:43Z</time>
      </trkpt>
      <trkpt lat="50.69067" lon="4.22272">
        <ele>51.09</ele>
        <time>2018-02-04T08:42:54Z</time>
      </trkpt>
      <trkpt lat="50.69086" lon="4.22256">
        <ele>51.09</ele>
        <time>2018-02-04T08:43:07Z</time>
      </trkpt>
      <trkpt lat="50.69104" lon="4.22237">
        <ele>51.09</ele>
        <time>2018-02-04T08:43:23Z</time>
      </trkpt>
      <trkpt lat="50.69119" lon="4.22233">
        <ele>50.13</ele>
        <time>2018-02-04T08:43:36Z</time>
      </trkpt>
      <trkpt lat="50.69119" lon="4.22239">
        <ele>50.13</ele>
        <time>2018-02-04T08:43:40Z</time>
      </trkpt>
      <trkpt lat="50.69123" lon="4.2224">
        <ele>50.13</ele>
        <time>2018-02-04T08:43:43Z</time>
      </trkpt>
      <trkpt lat="50.69127" lon="4.22243">
        <ele>51.57</ele>
        <time>2018-02-04T08:43:46Z</time>
      </trkpt>
      <trkpt lat="50.69129" lon="4.22243">
        <ele>51.57</ele>
        <time>2018-02-04T08:43:47Z</time>
      </trkpt>
      <trkpt lat="50.69157" lon="4.22236">
        <ele>52.53</ele>
        <time>2018-02-04T08:44:02Z</time>
      </trkpt>
      <trkpt lat="50.69174" lon="4.22234">
        <ele>52.53</ele>
        <time>2018-02-04T08:44:17Z</time>
      </trkpt>
      <trkpt lat="50.69182" lon="4.22234">
        <ele>51.09</ele>
        <time>2018-02-04T08:44:29Z</time>
      </trkpt>
      <trkpt lat="50.692" lon="4.2223">
        <ele>50.61</ele>
        <time>2018-02-04T08:44:45Z</time>
      </trkpt>
      <trkpt lat="50.69225" lon="4.22228">
        <ele>50.61</ele>
        <time>2018-02-04T08:45:03Z</time>
      </trkpt>
      <trkpt lat="50.69244" lon="4.22228">
        <ele>50.13</ele>
        <time>2018-02-04T08:45:16Z</time>
      </trkpt>
      <trkpt lat="50.69269" lon="4.22226">
        <ele>49.65</ele>
        <time>2018-02-04T08:45:34Z</time>
      </trkpt>
      <trkpt lat="50.69282" lon="4.22225">
        <ele>49.16</ele>
        <time>2018-02-04T08:45:48Z</time>
      </trkpt>
      <trkpt lat="50.69303" lon="4.22225">
        <ele>48.68</ele>
        <time>2018-02-04T08:46:05Z</time>
      </trkpt>
      <trkpt lat="50.69322" lon="4.22227">
        <ele>47.72</ele>
        <time>2018-02-04T08:46:21Z</time>
      </trkpt>
      <trkpt lat="50.69334" lon="4.22228">
        <ele>47.24</ele>
        <time>2018-02-04T08:46:33Z</time>
      </trkpt>
      <trkpt lat="50.69355" lon="4.2223">
        <ele>46.28</ele>
        <time>2018-02-04T08:46:50Z</time>
      </trkpt>
      <trkpt lat="50.69376" lon="4.22236">
        <ele>45.8</ele>
        <time>2018-02-04T08:47:08Z</time>
      </trkpt>
      <trkpt lat="50.69389" lon="4.22242">
        <ele>44.36</ele>
        <time>2018-02-04T08:47:22Z</time>
      </trkpt>
      <trkpt lat="50.69399" lon="4.22246">
        <ele>43.4</ele>
        <time>2018-02-04T08:47:36Z</time>
      </trkpt>
      <trkpt lat="50.69414" lon="4.22251">
        <ele>41.47</ele>
        <time>2018-02-04T08:47:52Z</time>
      </trkpt>
      <trkpt lat="50.69428" lon="4.22257">
        <ele>39.55</ele>
        <time>2018-02-04T08:48:09Z</time>
      </trkpt>
      <trkpt lat="50.6944" lon="4.22263">
        <ele>37.63</ele>
        <time>2018-02-04T08:48:23Z</time>
      </trkpt>
      <trkpt lat="50.6945" lon="4.22267">
        <ele>36.19</ele>
        <time>2018-02-04T08:48:34Z</time>
      </trkpt>
      <trkpt lat="50.69453" lon="4.22268">
        <ele>35.71</ele>
        <time>2018-02-04T08:48:37Z</time>
      </trkpt>
      <trkpt lat="50.69459" lon="4.22275">
        <ele>35.71</ele>
        <time>2018-02-04T08:48:43Z</time>
      </trkpt>
      <trkpt lat="50.69457" lon="4.22305">
        <ele>35.23</ele>
        <time>2018-02-04T08:48:59Z</time>
      </trkpt>
      <trkpt lat="50.6945" lon="4.2234">
        <ele>35.23</ele>
        <time>2018-02-04T08:49:17Z</time>
      </trkpt>
      <trkpt lat="50.69442" lon="4.22378">
        <ele>36.19</ele>
        <time>2018-02-04T08:49:35Z</time>
      </trkpt>
      <trkpt lat="50.69439" lon="4.22412">
        <ele>37.15</ele>
        <time>2018-02-04T08:49:51Z</time>
      </trkpt>
      <trkpt lat="50.69442" lon="4.22452">
        <ele>38.11</ele>
        <time>2018-02-04T08:50:10Z</time>
      </trkpt>
      <trkpt lat="50.6945" lon="4.22487">
        <ele>39.07</ele>
        <time>2018-02-04T08:50:29Z</time>
      </trkpt>
      <trkpt lat="50.6946" lon="4.22524">
        <ele>40.03</ele>
        <time>2018-02-04T08:50:48Z</time>
      </trkpt>
      <trkpt lat="50.69468" lon="4.22567">
        <ele>40.51</ele>
        <time>2018-02-04T08:51:09Z</time>
      </trkpt>
      <trkpt lat="50.69468" lon="4.22609">
        <ele>41.47</ele>
        <time>2018-02-04T08:51:29Z</time>
      </trkpt>
      <trkpt lat="50.6947" lon="4.2265">
        <ele>41.95</ele>
        <time>2018-02-04T08:51:48Z</time>
      </trkpt>
      <trkpt lat="50.69478" lon="4.22686">
        <ele>42.44</ele>
        <time>2018-02-04T08:52:07Z</time>
      </trkpt>
      <trkpt lat="50.69493" lon="4.22712">
        <ele>42.44</ele>
        <time>2018-02-04T08:52:22Z</time>
      </trkpt>
      <trkpt lat="50.69518" lon="4.22733">
        <ele>42.44</ele>
        <time>2018-02-04T08:52:44Z</time>
      </trkpt>
      <trkpt lat="50.69542" lon="4.2275">
        <ele>42.44</ele>
        <time>2018-02-04T08:53:04Z</time>
      </trkpt>
      <trkpt lat="50.69562" lon="4.22771">
        <ele>42.92</ele>
        <time>2018-02-04T08:53:24Z</time>
      </trkpt>
      <trkpt lat="50.6958" lon="4.22801">
        <ele>42.44</ele>
        <time>2018-02-04T08:53:43Z</time>
      </trkpt>
      <trkpt lat="50.69598" lon="4.22831">
        <ele>42.44</ele>
        <time>2018-02-04T08:54:02Z</time>
      </trkpt>
      <trkpt lat="50.69612" lon="4.22856">
        <ele>42.44</ele>
        <time>2018-02-04T08:54:18Z</time>
      </trkpt>
      <trkpt lat="50.69629" lon="4.22887">
        <ele>42.44</ele>
        <time>2018-02-04T08:54:37Z</time>
      </trkpt>
      <trkpt lat="50.69646" lon="4.22916">
        <ele>42.44</ele>
        <time>2018-02-04T08:54:55Z</time>
      </trkpt>
      <trkpt lat="50.69661" lon="4.22931">
        <ele>42.44</ele>
        <time>2018-02-04T08:55:09Z</time>
      </trkpt>
      <trkpt lat="50.69679" lon="4.22946">
        <ele>42.44</ele>
        <time>2018-02-04T08:55:26Z</time>
      </trkpt>
      <trkpt lat="50.69697" lon="4.22962">
        <ele>42.44</ele>
        <time>2018-02-04T08:55:41Z</time>
      </trkpt>
      <trkpt lat="50.69717" lon="4.22982">
        <ele>42.44</ele>
        <time>2018-02-04T08:55:59Z</time>
      </trkpt>
      <trkpt lat="50.69736" lon="4.23012">
        <ele>43.88</ele>
        <time>2018-02-04T08:56:19Z</time>
      </trkpt>
      <trkpt lat="50.69752" lon="4.23044">
        <ele>44.84</ele>
        <time>2018-02-04T08:56:39Z</time>
      </trkpt>
      <trkpt lat="50.69767" lon="4.23073">
        <ele>45.32</ele>
        <time>2018-02-04T08:56:57Z</time>
      </trkpt>
      <trkpt lat="50.69772" lon="4.23107">
        <ele>45.32</ele>
        <time>2018-02-04T08:57:15Z</time>
      </trkpt>
      <trkpt lat="50.69774" lon="4.23147">
        <ele>45.32</ele>
        <time>2018-02-04T08:57:34Z</time>
      </trkpt>
      <trkpt lat="50.69776" lon="4.23157">
        <ele>45.32</ele>
        <time>2018-02-04T08:57:40Z</time>
      </trkpt>
      <trkpt lat="50.69776" lon="4.23164">
        <ele>45.32</ele>
        <time>2018-02-04T08:57:44Z</time>
      </trkpt>
      <trkpt lat="50.69778" lon="4.2318">
        <ele>45.32</ele>
        <time>2018-02-04T08:57:52Z</time>
      </trkpt>
      <trkpt lat="50.69785" lon="4.23203">
        <ele>45.32</ele>
        <time>2018-02-04T08:58:05Z</time>
      </trkpt>
      <trkpt lat="50.69787" lon="4.2321">
        <ele>45.32</ele>
        <time>2018-02-04T08:58:09Z</time>
      </trkpt>
      <trkpt lat="50.69791" lon="4.2324">
        <ele>45.32</ele>
        <time>2018-02-04T08:58:25Z</time>
      </trkpt>
      <trkpt lat="50.69794" lon="4.23266">
        <ele>45.8</ele>
        <time>2018-02-04T08:58:39Z</time>
      </trkpt>
      <trkpt lat="50.69799" lon="4.23297">
        <ele>45.8</ele>
        <time>2018-02-04T08:58:55Z</time>
      </trkpt>
      <trkpt lat="50.69805" lon="4.23327">
        <ele>46.28</ele>
        <time>2018-02-04T08:59:12Z</time>
      </trkpt>
      <trkpt lat="50.69809" lon="4.23351">
        <ele>46.76</ele>
        <time>2018-02-04T08:59:25Z</time>
      </trkpt>
      <trkpt lat="50.69818" lon="4.23381">
        <ele>47.24</ele>
        <time>2018-02-04T08:59:40Z</time>
      </trkpt>
      <trkpt lat="50.69822" lon="4.23409">
        <ele>47.24</ele>
        <time>2018-02-04T08:59:55Z</time>
      </trkpt>
      <trkpt lat="50.69825" lon="4.23427">
        <ele>47.72</ele>
        <time>2018-02-04T09:00:04Z</time>
      </trkpt>
      <trkpt lat="50.69825" lon="4.23464">
        <ele>47.72</ele>
        <time>2018-02-04T09:00:22Z</time>
      </trkpt>
      <trkpt lat="50.69826" lon="4.23482">
        <ele>48.2</ele>
        <time>2018-02-04T09:00:31Z</time>
      </trkpt>
      <trkpt lat="50.69825" lon="4.23515">
        <ele>48.2</ele>
        <time>2018-02-04T09:00:48Z</time>
      </trkpt>
      <trkpt lat="50.69824" lon="4.23523">
        <ele>48.2</ele>
        <time>2018-02-04T09:00:53Z</time>
      </trkpt>
      <trkpt lat="50.6982" lon="4.2355">
        <ele>48.2</ele>
        <time>2018-02-04T09:01:06Z</time>
      </trkpt>
      <trkpt lat="50.69815" lon="4.23575">
        <ele>48.68</ele>
        <time>2018-02-04T09:01:19Z</time>
      </trkpt>
      <trkpt lat="50.69819" lon="4.23606">
        <ele>49.65</ele>
        <time>2018-02-04T09:01:35Z</time>
      </trkpt>
      <trkpt lat="50.69828" lon="4.23629">
        <ele>51.09</ele>
        <time>2018-02-04T09:01:49Z</time>
      </trkpt>
      <trkpt lat="50.69833" lon="4.23648">
        <ele>53.01</ele>
        <time>2018-02-04T09:02:00Z</time>
      </trkpt>
      <trkpt lat="50.69843" lon="4.23671">
        <ele>54.45</ele>
        <time>2018-02-04T09:02:15Z</time>
      </trkpt>
      <trkpt lat="50.6985" lon="4.23689">
        <ele>55.41</ele>
        <time>2018-02-04T09:02:28Z</time>
      </trkpt>
      <trkpt lat="50.6986" lon="4.2371">
        <ele>56.37</ele>
        <time>2018-02-04T09:02:41Z</time>
      </trkpt>
      <trkpt lat="50.69853" lon="4.23735">
        <ele>55.89</ele>
        <time>2018-02-04T09:02:56Z</time>
      </trkpt>
      <trkpt lat="50.69848" lon="4.23754">
        <ele>54.93</ele>
        <time>2018-02-04T09:03:06Z</time>
      </trkpt>
      <trkpt lat="50.69844" lon="4.23767">
        <ele>54.93</ele>
        <time>2018-02-04T09:03:14Z</time>
      </trkpt>
      <trkpt lat="50.69832" lon="4.23803">
        <ele>53.97</ele>
        <time>2018-02-04T09:03:35Z</time>
      </trkpt>
      <trkpt lat="50.69824" lon="4.2383">
        <ele>53.49</ele>
        <time>2018-02-04T09:03:49Z</time>
      </trkpt>
      <trkpt lat="50.69822" lon="4.23833">
        <ele>53.49</ele>
        <time>2018-02-04T09:03:51Z</time>
      </trkpt>
      <trkpt lat="50.69808" lon="4.23843">
        <ele>53.49</ele>
        <time>2018-02-04T09:04:07Z</time>
      </trkpt>
      <trkpt lat="50.69798" lon="4.23852">
        <ele>53.49</ele>
        <time>2018-02-04T09:04:19Z</time>
      </trkpt>
      <trkpt lat="50.69784" lon="4.23861">
        <ele>53.49</ele>
        <time>2018-02-04T09:04:32Z</time>
      </trkpt>
      <trkpt lat="50.69776" lon="4.23868">
        <ele>53.49</ele>
        <time>2018-02-04T09:04:38Z</time>
      </trkpt>
      <trkpt lat="50.69773" lon="4.23871">
        <ele>53.49</ele>
        <time>2018-02-04T09:04:41Z</time>
      </trkpt>
      <trkpt lat="50.6976" lon="4.23881">
        <ele>53.49</ele>
        <time>2018-02-04T09:04:53Z</time>
      </trkpt>
      <trkpt lat="50.69756" lon="4.23885">
        <ele>54.45</ele>
        <time>2018-02-04T09:04:57Z</time>
      </trkpt>
      <trkpt lat="50.69747" lon="4.23892">
        <ele>54.93</ele>
        <time>2018-02-04T09:05:05Z</time>
      </trkpt>
      <trkpt lat="50.69729" lon="4.23913">
        <ele>54.93</ele>
        <time>2018-02-04T09:05:20Z</time>
      </trkpt>
      <trkpt lat="50.69715" lon="4.23932">
        <ele>55.41</ele>
        <time>2018-02-04T09:05:32Z</time>
      </trkpt>
      <trkpt lat="50.69702" lon="4.23949">
        <ele>55.89</ele>
        <time>2018-02-04T09:05:45Z</time>
      </trkpt>
      <trkpt lat="50.69699" lon="4.23954">
        <ele>56.37</ele>
        <time>2018-02-04T09:05:49Z</time>
      </trkpt>
      <trkpt lat="50.69697" lon="4.23957">
        <ele>56.37</ele>
        <time>2018-02-04T09:05:52Z</time>
      </trkpt>
      <trkpt lat="50.69687" lon="4.23973">
        <ele>57.82</ele>
        <time>2018-02-04T09:06:04Z</time>
      </trkpt>
      <trkpt lat="50.69676" lon="4.23991">
        <ele>58.78</ele>
        <time>2018-02-04T09:06:17Z</time>
      </trkpt>
      <trkpt lat="50.69666" lon="4.24004">
        <ele>59.26</ele>
        <time>2018-02-04T09:06:30Z</time>
      </trkpt>
      <trkpt lat="50.69657" lon="4.24017">
        <ele>60.22</ele>
        <time>2018-02-04T09:06:40Z</time>
      </trkpt>
      <trkpt lat="50.69644" lon="4.24041">
        <ele>61.18</ele>
        <time>2018-02-04T09:06:55Z</time>
      </trkpt>
      <trkpt lat="50.69634" lon="4.24057">
        <ele>62.14</ele>
        <time>2018-02-04T09:07:06Z</time>
      </trkpt>
      <trkpt lat="50.69633" lon="4.24059">
        <ele>62.14</ele>
        <time>2018-02-04T09:07:07Z</time>
      </trkpt>
      <trkpt lat="50.69624" lon="4.24076">
        <ele>63.1</ele>
        <time>2018-02-04T09:07:19Z</time>
      </trkpt>
      <trkpt lat="50.69623" lon="4.2408">
        <ele>63.1</ele>
        <time>2018-02-04T09:07:21Z</time>
      </trkpt>
      <trkpt lat="50.69614" lon="4.24096">
        <ele>64.07</ele>
        <time>2018-02-04T09:07:32Z</time>
      </trkpt>
      <trkpt lat="50.69606" lon="4.24107">
        <ele>64.55</ele>
        <time>2018-02-04T09:07:41Z</time>
      </trkpt>
      <trkpt lat="50.69598" lon="4.24122">
        <ele>65.99</ele>
        <time>2018-02-04T09:07:51Z</time>
      </trkpt>
      <trkpt lat="50.69586" lon="4.24141">
        <ele>67.43</ele>
        <time>2018-02-04T09:08:05Z</time>
      </trkpt>
      <trkpt lat="50.69575" lon="4.24162">
        <ele>68.39</ele>
        <time>2018-02-04T09:08:18Z</time>
      </trkpt>
      <trkpt lat="50.69567" lon="4.24173">
        <ele>69.35</ele>
        <time>2018-02-04T09:08:28Z</time>
      </trkpt>
      <trkpt lat="50.69555" lon="4.2419">
        <ele>71.27</ele>
        <time>2018-02-04T09:08:39Z</time>
      </trkpt>
      <trkpt lat="50.69543" lon="4.24207">
        <ele>71.76</ele>
        <time>2018-02-04T09:08:50Z</time>
      </trkpt>
      <trkpt lat="50.69536" lon="4.24219">
        <ele>72.72</ele>
        <time>2018-02-04T09:08:58Z</time>
      </trkpt>
      <trkpt lat="50.69527" lon="4.24234">
        <ele>74.16</ele>
        <time>2018-02-04T09:09:10Z</time>
      </trkpt>
      <trkpt lat="50.69517" lon="4.24249">
        <ele>75.12</ele>
        <time>2018-02-04T09:09:24Z</time>
      </trkpt>
      <trkpt lat="50.69507" lon="4.24266">
        <ele>76.56</ele>
        <time>2018-02-04T09:09:36Z</time>
      </trkpt>
      <trkpt lat="50.69496" lon="4.24285">
        <ele>77.52</ele>
        <time>2018-02-04T09:09:49Z</time>
      </trkpt>
      <trkpt lat="50.69494" lon="4.24287">
        <ele>78</ele>
        <time>2018-02-04T09:09:51Z</time>
      </trkpt>
      <trkpt lat="50.69485" lon="4.24303">
        <ele>78.48</ele>
        <time>2018-02-04T09:10:03Z</time>
      </trkpt>
      <trkpt lat="50.69472" lon="4.24325">
        <ele>79.93</ele>
        <time>2018-02-04T09:10:16Z</time>
      </trkpt>
      <trkpt lat="50.69472" lon="4.24327">
        <ele>79.93</ele>
        <time>2018-02-04T09:10:17Z</time>
      </trkpt>
      <trkpt lat="50.6947" lon="4.2433">
        <ele>79.93</ele>
        <time>2018-02-04T09:10:19Z</time>
      </trkpt>
      <trkpt lat="50.69465" lon="4.24337">
        <ele>80.41</ele>
        <time>2018-02-04T09:10:25Z</time>
      </trkpt>
      <trkpt lat="50.69459" lon="4.2435">
        <ele>81.37</ele>
        <time>2018-02-04T09:10:33Z</time>
      </trkpt>
      <trkpt lat="50.6945" lon="4.24365">
        <ele>81.85</ele>
        <time>2018-02-04T09:10:44Z</time>
      </trkpt>
      <trkpt lat="50.69439" lon="4.24381">
        <ele>83.29</ele>
        <time>2018-02-04T09:10:57Z</time>
      </trkpt>
      <trkpt lat="50.69433" lon="4.24392">
        <ele>84.73</ele>
        <time>2018-02-04T09:11:07Z</time>
      </trkpt>
      <trkpt lat="50.69423" lon="4.24407">
        <ele>85.21</ele>
        <time>2018-02-04T09:11:18Z</time>
      </trkpt>
      <trkpt lat="50.69413" lon="4.24425">
        <ele>86.66</ele>
        <time>2018-02-04T09:11:29Z</time>
      </trkpt>
      <trkpt lat="50.69411" lon="4.24431">
        <ele>86.66</ele>
        <time>2018-02-04T09:11:33Z</time>
      </trkpt>
      <trkpt lat="50.69408" lon="4.24435">
        <ele>87.14</ele>
        <time>2018-02-04T09:11:36Z</time>
      </trkpt>
      <trkpt lat="50.69401" lon="4.24444">
        <ele>88.1</ele>
        <time>2018-02-04T09:11:43Z</time>
      </trkpt>
      <trkpt lat="50.6939" lon="4.24462">
        <ele>89.54</ele>
        <time>2018-02-04T09:11:55Z</time>
      </trkpt>
      <trkpt lat="50.69388" lon="4.24465">
        <ele>89.54</ele>
        <time>2018-02-04T09:11:57Z</time>
      </trkpt>
      <trkpt lat="50.6938" lon="4.24476">
        <ele>90.02</ele>
        <time>2018-02-04T09:12:05Z</time>
      </trkpt>
      <trkpt lat="50.69377" lon="4.24481">
        <ele>90.98</ele>
        <time>2018-02-04T09:12:08Z</time>
      </trkpt>
      <trkpt lat="50.69369" lon="4.24497">
        <ele>91.94</ele>
        <time>2018-02-04T09:12:19Z</time>
      </trkpt>
      <trkpt lat="50.69356" lon="4.24515">
        <ele>92.9</ele>
        <time>2018-02-04T09:12:31Z</time>
      </trkpt>
      <trkpt lat="50.69345" lon="4.2453">
        <ele>93.87</ele>
        <time>2018-02-04T09:12:43Z</time>
      </trkpt>
      <trkpt lat="50.69336" lon="4.2455">
        <ele>95.31</ele>
        <time>2018-02-04T09:12:56Z</time>
      </trkpt>
      <trkpt lat="50.69324" lon="4.24569">
        <ele>96.27</ele>
        <time>2018-02-04T09:13:09Z</time>
      </trkpt>
      <trkpt lat="50.69313" lon="4.24586">
        <ele>97.71</ele>
        <time>2018-02-04T09:13:21Z</time>
      </trkpt>
      <trkpt lat="50.69302" lon="4.24606">
        <ele>99.15</ele>
        <time>2018-02-04T09:13:34Z</time>
      </trkpt>
      <trkpt lat="50.69301" lon="4.24607">
        <ele>99.15</ele>
        <time>2018-02-04T09:13:36Z</time>
      </trkpt>
      <trkpt lat="50.69292" lon="4.24623">
        <ele>100.11</ele>
        <time>2018-02-04T09:13:47Z</time>
      </trkpt>
      <trkpt lat="50.6928" lon="4.2464">
        <ele>101.56</ele>
        <time>2018-02-04T09:14:01Z</time>
      </trkpt>
      <trkpt lat="50.69268" lon="4.24656">
        <ele>102.52</ele>
        <time>2018-02-04T09:14:13Z</time>
      </trkpt>
      <trkpt lat="50.69258" lon="4.24674">
        <ele>104.44</ele>
        <time>2018-02-04T09:14:27Z</time>
      </trkpt>
      <trkpt lat="50.69245" lon="4.24696">
        <ele>105.4</ele>
        <time>2018-02-04T09:14:42Z</time>
      </trkpt>
      <trkpt lat="50.69235" lon="4.24708">
        <ele>106.36</ele>
        <time>2018-02-04T09:14:53Z</time>
      </trkpt>
      <trkpt lat="50.69227" lon="4.24721">
        <ele>107.32</ele>
        <time>2018-02-04T09:15:02Z</time>
      </trkpt>
      <trkpt lat="50.69213" lon="4.24741">
        <ele>108.77</ele>
        <time>2018-02-04T09:15:16Z</time>
      </trkpt>
      <trkpt lat="50.69207" lon="4.24753">
        <ele>110.21</ele>
        <time>2018-02-04T09:15:28Z</time>
      </trkpt>
      <trkpt lat="50.69202" lon="4.2476">
        <ele>110.69</ele>
        <time>2018-02-04T09:15:33Z</time>
      </trkpt>
      <trkpt lat="50.69191" lon="4.24781">
        <ele>111.65</ele>
        <time>2018-02-04T09:15:47Z</time>
      </trkpt>
      <trkpt lat="50.69189" lon="4.24787">
        <ele>111.65</ele>
        <time>2018-02-04T09:15:51Z</time>
      </trkpt>
      <trkpt lat="50.69179" lon="4.24809">
        <ele>112.61</ele>
        <time>2018-02-04T09:16:04Z</time>
      </trkpt>
      <trkpt lat="50.6917" lon="4.24828">
        <ele>113.09</ele>
        <time>2018-02-04T09:16:18Z</time>
      </trkpt>
      <trkpt lat="50.69158" lon="4.24842">
        <ele>113.57</ele>
        <time>2018-02-04T09:16:30Z</time>
      </trkpt>
      <trkpt lat="50.69157" lon="4.24843">
        <ele>113.57</ele>
        <time>2018-02-04T09:16:31Z</time>
      </trkpt>
      <trkpt lat="50.69144" lon="4.2485">
        <ele>113.57</ele>
        <time>2018-02-04T09:16:42Z</time>
      </trkpt>
      <trkpt lat="50.69141" lon="4.24852">
        <ele>113.57</ele>
        <time>2018-02-04T09:16:45Z</time>
      </trkpt>
      <trkpt lat="50.69136" lon="4.24853">
        <ele>113.57</ele>
        <time>2018-02-04T09:16:50Z</time>
      </trkpt>
      <trkpt lat="50.69134" lon="4.24854">
        <ele>113.57</ele>
        <time>2018-02-04T09:16:52Z</time>
      </trkpt>
      <trkpt lat="50.69131" lon="4.24852">
        <ele>113.57</ele>
        <time>2018-02-04T09:16:55Z</time>
      </trkpt>
      <trkpt lat="50.6912" lon="4.24853">
        <ele>113.57</ele>
        <time>2018-02-04T09:17:03Z</time>
      </trkpt>
      <trkpt lat="50.69102" lon="4.24858">
        <ele>112.61</ele>
        <time>2018-02-04T09:17:18Z</time>
      </trkpt>
      <trkpt lat="50.69089" lon="4.24867">
        <ele>111.65</ele>
        <time>2018-02-04T09:17:29Z</time>
      </trkpt>
      <trkpt lat="50.69078" lon="4.2488">
        <ele>111.65</ele>
        <time>2018-02-04T09:17:41Z</time>
      </trkpt>
      <trkpt lat="50.69072" lon="4.24888">
        <ele>110.69</ele>
        <time>2018-02-04T09:17:55Z</time>
      </trkpt>
      <trkpt lat="50.69068" lon="4.24896">
        <ele>110.69</ele>
        <time>2018-02-04T09:18:06Z</time>
      </trkpt>
      <trkpt lat="50.69065" lon="4.24902">
        <ele>110.21</ele>
        <time>2018-02-04T09:18:12Z</time>
      </trkpt>
      <trkpt lat="50.69056" lon="4.24914">
        <ele>108.29</ele>
        <time>2018-02-04T09:18:27Z</time>
      </trkpt>
      <trkpt lat="50.69043" lon="4.24925">
        <ele>106.84</ele>
        <time>2018-02-04T09:18:39Z</time>
      </trkpt>
      <trkpt lat="50.6903" lon="4.24936">
        <ele>105.4</ele>
        <time>2018-02-04T09:18:50Z</time>
      </trkpt>
      <trkpt lat="50.69013" lon="4.24949">
        <ele>103</ele>
        <time>2018-02-04T09:19:06Z</time>
      </trkpt>
      <trkpt lat="50.69004" lon="4.24951">
        <ele>102.52</ele>
        <time>2018-02-04T09:19:16Z</time>
      </trkpt>
      <trkpt lat="50.68998" lon="4.24945">
        <ele>102.52</ele>
        <time>2018-02-04T09:19:21Z</time>
      </trkpt>
      <trkpt lat="50.68997" lon="4.24941">
        <ele>102.52</ele>
        <time>2018-02-04T09:19:23Z</time>
      </trkpt>
      <trkpt lat="50.68989" lon="4.24928">
        <ele>103.48</ele>
        <time>2018-02-04T09:19:33Z</time>
      </trkpt>
      <trkpt lat="50.68988" lon="4.24921">
        <ele>104.92</ele>
        <time>2018-02-04T09:19:37Z</time>
      </trkpt>
      <trkpt lat="50.68984" lon="4.24909">
        <ele>104.92</ele>
        <time>2018-02-04T09:19:44Z</time>
      </trkpt>
      <trkpt lat="50.68977" lon="4.24883">
        <ele>105.88</ele>
        <time>2018-02-04T09:19:59Z</time>
      </trkpt>
      <trkpt lat="50.68976" lon="4.24882">
        <ele>105.88</ele>
        <time>2018-02-04T09:20:00Z</time>
      </trkpt>
      <trkpt lat="50.68975" lon="4.24876">
        <ele>106.36</ele>
        <time>2018-02-04T09:20:03Z</time>
      </trkpt>
      <trkpt lat="50.68975" lon="4.24868">
        <ele>106.84</ele>
        <time>2018-02-04T09:20:07Z</time>
      </trkpt>
      <trkpt lat="50.68975" lon="4.24842">
        <ele>107.32</ele>
        <time>2018-02-04T09:20:19Z</time>
      </trkpt>
      <trkpt lat="50.68974" lon="4.24832">
        <ele>108.77</ele>
        <time>2018-02-04T09:20:25Z</time>
      </trkpt>
      <trkpt lat="50.68975" lon="4.24811">
        <ele>109.73</ele>
        <time>2018-02-04T09:20:40Z</time>
      </trkpt>
      <trkpt lat="50.68974" lon="4.24809">
        <ele>109.73</ele>
        <time>2018-02-04T09:20:42Z</time>
      </trkpt>
      <trkpt lat="50.68972" lon="4.24804">
        <ele>109.73</ele>
        <time>2018-02-04T09:20:46Z</time>
      </trkpt>
      <trkpt lat="50.6897" lon="4.24801">
        <ele>109.73</ele>
        <time>2018-02-04T09:20:49Z</time>
      </trkpt>
      <trkpt lat="50.68966" lon="4.24791">
        <ele>110.21</ele>
        <time>2018-02-04T09:20:55Z</time>
      </trkpt>
      <trkpt lat="50.68959" lon="4.24769">
        <ele>110.21</ele>
        <time>2018-02-04T09:21:09Z</time>
      </trkpt>
      <trkpt lat="50.68952" lon="4.24752">
        <ele>110.69</ele>
        <time>2018-02-04T09:21:20Z</time>
      </trkpt>
      <trkpt lat="50.68952" lon="4.24749">
        <ele>110.69</ele>
        <time>2018-02-04T09:21:22Z</time>
      </trkpt>
      <trkpt lat="50.68949" lon="4.24735">
        <ele>111.17</ele>
        <time>2018-02-04T09:21:29Z</time>
      </trkpt>
      <trkpt lat="50.68942" lon="4.24703">
        <ele>111.65</ele>
        <time>2018-02-04T09:21:44Z</time>
      </trkpt>
      <trkpt lat="50.68941" lon="4.24698">
        <ele>111.65</ele>
        <time>2018-02-04T09:21:47Z</time>
      </trkpt>
      <trkpt lat="50.68937" lon="4.24666">
        <ele>112.61</ele>
        <time>2018-02-04T09:22:01Z</time>
      </trkpt>
      <trkpt lat="50.68937" lon="4.24649">
        <ele>112.61</ele>
        <time>2018-02-04T09:22:08Z</time>
      </trkpt>
      <trkpt lat="50.68928" lon="4.24621">
        <ele>112.61</ele>
        <time>2018-02-04T09:22:23Z</time>
      </trkpt>
      <trkpt lat="50.68923" lon="4.24612">
        <ele>112.61</ele>
        <time>2018-02-04T09:22:29Z</time>
      </trkpt>
      <trkpt lat="50.68913" lon="4.24588">
        <ele>111.17</ele>
        <time>2018-02-04T09:22:42Z</time>
      </trkpt>
      <trkpt lat="50.68911" lon="4.24579">
        <ele>110.69</ele>
        <time>2018-02-04T09:22:47Z</time>
      </trkpt>
      <trkpt lat="50.68908" lon="4.2457">
        <ele>110.21</ele>
        <time>2018-02-04T09:22:52Z</time>
      </trkpt>
      <trkpt lat="50.68905" lon="4.24562">
        <ele>109.73</ele>
        <time>2018-02-04T09:22:56Z</time>
      </trkpt>
      <trkpt lat="50.68904" lon="4.24553">
        <ele>109.73</ele>
        <time>2018-02-04T09:23:00Z</time>
      </trkpt>
      <trkpt lat="50.68903" lon="4.24543">
        <ele>109.25</ele>
        <time>2018-02-04T09:23:04Z</time>
      </trkpt>
      <trkpt lat="50.68902" lon="4.24517">
        <ele>107.81</ele>
        <time>2018-02-04T09:23:16Z</time>
      </trkpt>
      <trkpt lat="50.68904" lon="4.24502">
        <ele>107.32</ele>
        <time>2018-02-04T09:23:25Z</time>
      </trkpt>
      <trkpt lat="50.68903" lon="4.2449">
        <ele>106.36</ele>
        <time>2018-02-04T09:23:31Z</time>
      </trkpt>
      <trkpt lat="50.68904" lon="4.24465">
        <ele>104.92</ele>
        <time>2018-02-04T09:23:45Z</time>
      </trkpt>
      <trkpt lat="50.68904" lon="4.24445">
        <ele>103.48</ele>
        <time>2018-02-04T09:23:56Z</time>
      </trkpt>
      <trkpt lat="50.68908" lon="4.24411">
        <ele>102.04</ele>
        <time>2018-02-04T09:24:10Z</time>
      </trkpt>
      <trkpt lat="50.68912" lon="4.24396">
        <ele>101.56</ele>
        <time>2018-02-04T09:24:16Z</time>
      </trkpt>
      <trkpt lat="50.68913" lon="4.24382">
        <ele>101.08</ele>
        <time>2018-02-04T09:24:22Z</time>
      </trkpt>
      <trkpt lat="50.68914" lon="4.24363">
        <ele>99.63</ele>
        <time>2018-02-04T09:24:29Z</time>
      </trkpt>
      <trkpt lat="50.68916" lon="4.24339">
        <ele>99.15</ele>
        <time>2018-02-04T09:24:39Z</time>
      </trkpt>
      <trkpt lat="50.68917" lon="4.24311">
        <ele>98.19</ele>
        <time>2018-02-04T09:24:50Z</time>
      </trkpt>
      <trkpt lat="50.68923" lon="4.24283">
        <ele>96.27</ele>
        <time>2018-02-04T09:25:04Z</time>
      </trkpt>
      <trkpt lat="50.68925" lon="4.2428">
        <ele>96.27</ele>
        <time>2018-02-04T09:25:06Z</time>
      </trkpt>
      <trkpt lat="50.68931" lon="4.24272">
        <ele>96.27</ele>
        <time>2018-02-04T09:25:11Z</time>
      </trkpt>
      <trkpt lat="50.68952" lon="4.24274">
        <ele>95.79</ele>
        <time>2018-02-04T09:25:27Z</time>
      </trkpt>
      <trkpt lat="50.68954" lon="4.24275">
        <ele>95.79</ele>
        <time>2018-02-04T09:25:28Z</time>
      </trkpt>
      <trkpt lat="50.68964" lon="4.24273">
        <ele>94.83</ele>
        <time>2018-02-04T09:25:36Z</time>
      </trkpt>
      <trkpt lat="50.68971" lon="4.24256">
        <ele>93.87</ele>
        <time>2018-02-04T09:25:48Z</time>
      </trkpt>
      <trkpt lat="50.68975" lon="4.24224">
        <ele>91.94</ele>
        <time>2018-02-04T09:26:05Z</time>
      </trkpt>
      <trkpt lat="50.68978" lon="4.24201">
        <ele>90.98</ele>
        <time>2018-02-04T09:26:16Z</time>
      </trkpt>
      <trkpt lat="50.6898" lon="4.2418">
        <ele>90.02</ele>
        <time>2018-02-04T09:26:27Z</time>
      </trkpt>
      <trkpt lat="50.68985" lon="4.24146">
        <ele>88.1</ele>
        <time>2018-02-04T09:26:43Z</time>
      </trkpt>
      <trkpt lat="50.68989" lon="4.24121">
        <ele>87.14</ele>
        <time>2018-02-04T09:26:55Z</time>
      </trkpt>
      <trkpt lat="50.68982" lon="4.24101">
        <ele>86.66</ele>
        <time>2018-02-04T09:27:08Z</time>
      </trkpt>
      <trkpt lat="50.68987" lon="4.24086">
        <ele>85.69</ele>
        <time>2018-02-04T09:27:15Z</time>
      </trkpt>
      <trkpt lat="50.68998" lon="4.24068">
        <ele>85.21</ele>
        <time>2018-02-04T09:27:25Z</time>
      </trkpt>
      <trkpt lat="50.69004" lon="4.24062">
        <ele>84.25</ele>
        <time>2018-02-04T09:27:30Z</time>
      </trkpt>
      <trkpt lat="50.69023" lon="4.24046">
        <ele>83.29</ele>
        <time>2018-02-04T09:27:45Z</time>
      </trkpt>
      <trkpt lat="50.69026" lon="4.2404">
        <ele>82.81</ele>
        <time>2018-02-04T09:27:49Z</time>
      </trkpt>
      <trkpt lat="50.69027" lon="4.24034">
        <ele>82.81</ele>
        <time>2018-02-04T09:27:54Z</time>
      </trkpt>
      <trkpt lat="50.69027" lon="4.24023">
        <ele>82.33</ele>
        <time>2018-02-04T09:27:59Z</time>
      </trkpt>
      <trkpt lat="50.69017" lon="4.23999">
        <ele>82.33</ele>
        <time>2018-02-04T09:28:16Z</time>
      </trkpt>
      <trkpt lat="50.69008" lon="4.23973">
        <ele>82.33</ele>
        <time>2018-02-04T09:28:31Z</time>
      </trkpt>
      <trkpt lat="50.69005" lon="4.23965">
        <ele>82.33</ele>
        <time>2018-02-04T09:28:36Z</time>
      </trkpt>
      <trkpt lat="50.68997" lon="4.23933">
        <ele>82.33</ele>
        <time>2018-02-04T09:28:51Z</time>
      </trkpt>
      <trkpt lat="50.68991" lon="4.23906">
        <ele>81.85</ele>
        <time>2018-02-04T09:29:04Z</time>
      </trkpt>
      <trkpt lat="50.68981" lon="4.23882">
        <ele>81.85</ele>
        <time>2018-02-04T09:29:18Z</time>
      </trkpt>
      <trkpt lat="50.68975" lon="4.23854">
        <ele>80.89</ele>
        <time>2018-02-04T09:29:31Z</time>
      </trkpt>
      <trkpt lat="50.68969" lon="4.2382">
        <ele>80.89</ele>
        <time>2018-02-04T09:29:48Z</time>
      </trkpt>
      <trkpt lat="50.68964" lon="4.23791">
        <ele>80.41</ele>
        <time>2018-02-04T09:30:02Z</time>
      </trkpt>
      <trkpt lat="50.68955" lon="4.23767">
        <ele>79.45</ele>
        <time>2018-02-04T09:30:15Z</time>
      </trkpt>
      <trkpt lat="50.68942" lon="4.23748">
        <ele>79.45</ele>
        <time>2018-02-04T09:30:29Z</time>
      </trkpt>
      <trkpt lat="50.68925" lon="4.23731">
        <ele>77.52</ele>
        <time>2018-02-04T09:30:44Z</time>
      </trkpt>
      <trkpt lat="50.6891" lon="4.23712">
        <ele>77.52</ele>
        <time>2018-02-04T09:30:57Z</time>
      </trkpt>
      <trkpt lat="50.68909" lon="4.2371">
        <ele>77.52</ele>
        <time>2018-02-04T09:30:58Z</time>
      </trkpt>
      <trkpt lat="50.68906" lon="4.23704">
        <ele>77.52</ele>
        <time>2018-02-04T09:31:02Z</time>
      </trkpt>
      <trkpt lat="50.68901" lon="4.23677">
        <ele>77.52</ele>
        <time>2018-02-04T09:31:14Z</time>
      </trkpt>
      <trkpt lat="50.68896" lon="4.23653">
        <ele>77.52</ele>
        <time>2018-02-04T09:31:26Z</time>
      </trkpt>
      <trkpt lat="50.68894" lon="4.23645">
        <ele>77.52</ele>
        <time>2018-02-04T09:31:30Z</time>
      </trkpt>
      <trkpt lat="50.68891" lon="4.2363">
        <ele>77.04</ele>
        <time>2018-02-04T09:31:38Z</time>
      </trkpt>
      <trkpt lat="50.6889" lon="4.23626">
        <ele>77.04</ele>
        <time>2018-02-04T09:31:40Z</time>
      </trkpt>
      <trkpt lat="50.68886" lon="4.2361">
        <ele>76.56</ele>
        <time>2018-02-04T09:31:48Z</time>
      </trkpt>
      <trkpt lat="50.68882" lon="4.23595">
        <ele>76.56</ele>
        <time>2018-02-04T09:31:56Z</time>
      </trkpt>
      <trkpt lat="50.68876" lon="4.23562">
        <ele>76.08</ele>
        <time>2018-02-04T09:32:11Z</time>
      </trkpt>
      <trkpt lat="50.6887" lon="4.23534">
        <ele>75.6</ele>
        <time>2018-02-04T09:32:24Z</time>
      </trkpt>
      <trkpt lat="50.68864" lon="4.23505">
        <ele>75.12</ele>
        <time>2018-02-04T09:32:38Z</time>
      </trkpt>
      <trkpt lat="50.68862" lon="4.23492">
        <ele>74.64</ele>
        <time>2018-02-04T09:32:44Z</time>
      </trkpt>
      <trkpt lat="50.68855" lon="4.23461">
        <ele>74.16</ele>
        <time>2018-02-04T09:32:59Z</time>
      </trkpt>
      <trkpt lat="50.68847" lon="4.2343">
        <ele>73.68</ele>
        <time>2018-02-04T09:33:14Z</time>
      </trkpt>
      <trkpt lat="50.68843" lon="4.23397">
        <ele>72.72</ele>
        <time>2018-02-04T09:33:29Z</time>
      </trkpt>
      <trkpt lat="50.68841" lon="4.23386">
        <ele>72.72</ele>
        <time>2018-02-04T09:33:34Z</time>
      </trkpt>
      <trkpt lat="50.68836" lon="4.23347">
        <ele>72.24</ele>
        <time>2018-02-04T09:33:52Z</time>
      </trkpt>
      <trkpt lat="50.68834" lon="4.23315">
        <ele>71.27</ele>
        <time>2018-02-04T09:34:07Z</time>
      </trkpt>
      <trkpt lat="50.68834" lon="4.23292">
        <ele>70.79</ele>
        <time>2018-02-04T09:34:18Z</time>
      </trkpt>
      <trkpt lat="50.68834" lon="4.23281">
        <ele>70.79</ele>
        <time>2018-02-04T09:34:23Z</time>
      </trkpt>
      <trkpt lat="50.68835" lon="4.23266">
        <ele>70.79</ele>
        <time>2018-02-04T09:34:30Z</time>
      </trkpt>
      <trkpt lat="50.68837" lon="4.23258">
        <ele>70.79</ele>
        <time>2018-02-04T09:34:34Z</time>
      </trkpt>
      <trkpt lat="50.68839" lon="4.23255">
        <ele>70.79</ele>
        <time>2018-02-04T09:34:36Z</time>
      </trkpt>
      <trkpt lat="50.68857" lon="4.23249">
        <ele>70.31</ele>
        <time>2018-02-04T09:34:49Z</time>
      </trkpt>
      <trkpt lat="50.6888" lon="4.23251">
        <ele>70.31</ele>
        <time>2018-02-04T09:35:05Z</time>
      </trkpt>
      <trkpt lat="50.689" lon="4.23256">
        <ele>69.83</ele>
        <time>2018-02-04T09:35:19Z</time>
      </trkpt>
      <trkpt lat="50.68913" lon="4.23259">
        <ele>69.83</ele>
        <time>2018-02-04T09:35:29Z</time>
      </trkpt>
      <trkpt lat="50.68921" lon="4.23256">
        <ele>69.83</ele>
        <time>2018-02-04T09:35:36Z</time>
      </trkpt>
      <trkpt lat="50.68933" lon="4.23255">
        <ele>69.83</ele>
        <time>2018-02-04T09:35:45Z</time>
      </trkpt>
      <trkpt lat="50.68939" lon="4.23232">
        <ele>68.39</ele>
        <time>2018-02-04T09:35:59Z</time>
      </trkpt>
      <trkpt lat="50.68943" lon="4.23209">
        <ele>66.95</ele>
        <time>2018-02-04T09:36:13Z</time>
      </trkpt>
      <trkpt lat="50.68943" lon="4.23207">
        <ele>66.95</ele>
        <time>2018-02-04T09:36:14Z</time>
      </trkpt>
      <trkpt lat="50.68944" lon="4.23196">
        <ele>65.99</ele>
        <time>2018-02-04T09:36:23Z</time>
      </trkpt>
      <trkpt lat="50.68946" lon="4.2317">
        <ele>64.55</ele>
        <time>2018-02-04T09:36:36Z</time>
      </trkpt>
      <trkpt lat="50.68946" lon="4.23164">
        <ele>64.55</ele>
        <time>2018-02-04T09:36:39Z</time>
      </trkpt>
      <trkpt lat="50.68945" lon="4.23156">
        <ele>64.07</ele>
        <time>2018-02-04T09:36:43Z</time>
      </trkpt>
      <trkpt lat="50.68938" lon="4.23141">
        <ele>63.1</ele>
        <time>2018-02-04T09:36:54Z</time>
      </trkpt>
      <trkpt lat="50.68937" lon="4.23133">
        <ele>62.62</ele>
        <time>2018-02-04T09:36:58Z</time>
      </trkpt>
      <trkpt lat="50.68935" lon="4.23097">
        <ele>61.66</ele>
        <time>2018-02-04T09:37:14Z</time>
      </trkpt>
      <trkpt lat="50.68933" lon="4.23071">
        <ele>60.7</ele>
        <time>2018-02-04T09:37:26Z</time>
      </trkpt>
      <trkpt lat="50.6893" lon="4.23039">
        <ele>60.22</ele>
        <time>2018-02-04T09:37:42Z</time>
      </trkpt>
      <trkpt lat="50.6893" lon="4.23038">
        <ele>59.74</ele>
        <time>2018-02-04T09:37:43Z</time>
      </trkpt>
      <trkpt lat="50.68929" lon="4.23028">
        <ele>60.22</ele>
        <time>2018-02-04T09:37:48Z</time>
      </trkpt>
      <trkpt lat="50.68919" lon="4.22997">
        <ele>59.26</ele>
        <time>2018-02-04T09:38:03Z</time>
      </trkpt>
      <trkpt lat="50.68915" lon="4.22971">
        <ele>58.3</ele>
        <time>2018-02-04T09:38:16Z</time>
      </trkpt>
      <trkpt lat="50.68911" lon="4.22944">
        <ele>58.3</ele>
        <time>2018-02-04T09:38:29Z</time>
      </trkpt>
      <trkpt lat="50.68908" lon="4.2291">
        <ele>57.34</ele>
        <time>2018-02-04T09:38:44Z</time>
      </trkpt>
      <trkpt lat="50.68906" lon="4.22879">
        <ele>56.86</ele>
        <time>2018-02-04T09:38:58Z</time>
      </trkpt>
      <trkpt lat="50.68904" lon="4.22857">
        <ele>56.37</ele>
        <time>2018-02-04T09:39:09Z</time>
      </trkpt>
      <trkpt lat="50.68904" lon="4.22852">
        <ele>56.37</ele>
        <time>2018-02-04T09:39:11Z</time>
      </trkpt>
      <trkpt lat="50.68909" lon="4.22827">
        <ele>54.93</ele>
        <time>2018-02-04T09:39:24Z</time>
      </trkpt>
      <trkpt lat="50.68904" lon="4.22823">
        <ele>55.41</ele>
        <time>2018-02-04T09:39:29Z</time>
      </trkpt>
      <trkpt lat="50.68899" lon="4.22814">
        <ele>55.41</ele>
        <time>2018-02-04T09:39:35Z</time>
      </trkpt>
      <trkpt lat="50.68897" lon="4.22795">
        <ele>55.41</ele>
        <time>2018-02-04T09:39:43Z</time>
      </trkpt>
      <trkpt lat="50.68898" lon="4.22772">
        <ele>55.41</ele>
        <time>2018-02-04T09:39:53Z</time>
      </trkpt>
      <trkpt lat="50.68899" lon="4.22759">
        <ele>55.41</ele>
        <time>2018-02-04T09:39:59Z</time>
      </trkpt>
      <trkpt lat="50.68899" lon="4.22732">
        <ele>55.41</ele>
        <time>2018-02-04T09:40:12Z</time>
      </trkpt>
      <trkpt lat="50.68896" lon="4.22706">
        <ele>54.93</ele>
        <time>2018-02-04T09:40:25Z</time>
      </trkpt>
      <trkpt lat="50.68886" lon="4.22679">
        <ele>54.93</ele>
        <time>2018-02-04T09:40:41Z</time>
      </trkpt>
      <trkpt lat="50.68884" lon="4.22677">
        <ele>54.93</ele>
        <time>2018-02-04T09:40:43Z</time>
      </trkpt>
      <trkpt lat="50.6888" lon="4.22669">
        <ele>54.45</ele>
        <time>2018-02-04T09:40:48Z</time>
      </trkpt>
      <trkpt lat="50.68876" lon="4.22658">
        <ele>54.45</ele>
        <time>2018-02-04T09:40:55Z</time>
      </trkpt>
      <trkpt lat="50.68875" lon="4.22653">
        <ele>54.45</ele>
        <time>2018-02-04T09:40:57Z</time>
      </trkpt>
      <trkpt lat="50.68875" lon="4.2263">
        <ele>54.93</ele>
        <time>2018-02-04T09:41:07Z</time>
      </trkpt>
      <trkpt lat="50.68871" lon="4.22604">
        <ele>54.45</ele>
        <time>2018-02-04T09:41:20Z</time>
      </trkpt>
      <trkpt lat="50.68872" lon="4.22569">
        <ele>53.49</ele>
        <time>2018-02-04T09:41:36Z</time>
      </trkpt>
      <trkpt lat="50.68874" lon="4.22565">
        <ele>53.01</ele>
        <time>2018-02-04T09:41:40Z</time>
      </trkpt>
      <trkpt lat="50.68877" lon="4.2254">
        <ele>51.09</ele>
        <time>2018-02-04T09:41:51Z</time>
      </trkpt>
      <trkpt lat="50.68874" lon="4.22501">
        <ele>50.61</ele>
        <time>2018-02-04T09:42:08Z</time>
      </trkpt>
      <trkpt lat="50.68871" lon="4.22492">
        <ele>50.61</ele>
        <time>2018-02-04T09:42:13Z</time>
      </trkpt>
      <trkpt lat="50.68869" lon="4.22461">
        <ele>50.61</ele>
        <time>2018-02-04T09:42:28Z</time>
      </trkpt>
      <trkpt lat="50.68865" lon="4.22431">
        <ele>50.61</ele>
        <time>2018-02-04T09:42:42Z</time>
      </trkpt>
      <trkpt lat="50.68863" lon="4.22428">
        <ele>50.61</ele>
        <time>2018-02-04T09:42:44Z</time>
      </trkpt>
      <trkpt lat="50.68859" lon="4.22423">
        <ele>50.61</ele>
        <time>2018-02-04T09:42:48Z</time>
      </trkpt>
      <trkpt lat="50.68854" lon="4.22404">
        <ele>50.13</ele>
        <time>2018-02-04T09:43:01Z</time>
      </trkpt>
      <trkpt lat="50.68854" lon="4.22395">
        <ele>49.65</ele>
        <time>2018-02-04T09:43:06Z</time>
      </trkpt>
      <trkpt lat="50.68852" lon="4.22367">
        <ele>48.2</ele>
        <time>2018-02-04T09:43:19Z</time>
      </trkpt>
      <trkpt lat="50.68851" lon="4.22359">
        <ele>47.72</ele>
        <time>2018-02-04T09:43:23Z</time>
      </trkpt>
      <trkpt lat="50.68851" lon="4.22349">
        <ele>47.24</ele>
        <time>2018-02-04T09:43:27Z</time>
      </trkpt>
      <trkpt lat="50.68851" lon="4.22334">
        <ele>46.76</ele>
        <time>2018-02-04T09:43:34Z</time>
      </trkpt>
      <trkpt lat="50.68846" lon="4.22327">
        <ele>45.8</ele>
        <time>2018-02-04T09:43:39Z</time>
      </trkpt>
      <trkpt lat="50.68844" lon="4.22319">
        <ele>45.8</ele>
        <time>2018-02-04T09:43:43Z</time>
      </trkpt>
      <trkpt lat="50.68835" lon="4.22308">
        <ele>45.8</ele>
        <time>2018-02-04T09:43:52Z</time>
      </trkpt>
      <trkpt lat="50.68826" lon="4.22307">
        <ele>45.8</ele>
        <time>2018-02-04T09:43:59Z</time>
      </trkpt>
      <trkpt lat="50.68823" lon="4.223">
        <ele>45.8</ele>
        <time>2018-02-04T09:44:03Z</time>
      </trkpt>
      <trkpt lat="50.6881" lon="4.22301">
        <ele>45.8</ele>
        <time>2018-02-04T09:44:14Z</time>
      </trkpt>
      <trkpt lat="50.6879" lon="4.22303">
        <ele>45.8</ele>
        <time>2018-02-04T09:44:27Z</time>
      </trkpt>
      <trkpt lat="50.68782" lon="4.22301">
        <ele>45.8</ele>
        <time>2018-02-04T09:44:32Z</time>
      </trkpt>
      <trkpt lat="50.68773" lon="4.22302">
        <ele>45.8</ele>
        <time>2018-02-04T09:44:38Z</time>
      </trkpt>
      <trkpt lat="50.68759" lon="4.22304">
        <ele>45.8</ele>
        <time>2018-02-04T09:44:48Z</time>
      </trkpt>
      <trkpt lat="50.68744" lon="4.2231">
        <ele>47.24</ele>
        <time>2018-02-04T09:45:01Z</time>
      </trkpt>
      <trkpt lat="50.68738" lon="4.22311">
        <ele>47.24</ele>
        <time>2018-02-04T09:45:05Z</time>
      </trkpt>
      <trkpt lat="50.68736" lon="4.2231">
        <ele>47.24</ele>
        <time>2018-02-04T09:45:07Z</time>
      </trkpt>
      <trkpt lat="50.68734" lon="4.22283">
        <ele>48.2</ele>
        <time>2018-02-04T09:45:19Z</time>
      </trkpt>
      <trkpt lat="50.68732" lon="4.22257">
        <ele>49.16</ele>
        <time>2018-02-04T09:45:30Z</time>
      </trkpt>
      <trkpt lat="50.68729" lon="4.2225">
        <ele>49.16</ele>
        <time>2018-02-04T09:45:34Z</time>
      </trkpt>
      <trkpt lat="50.68727" lon="4.22237">
        <ele>47.72</ele>
        <time>2018-02-04T09:45:40Z</time>
      </trkpt>
      <trkpt lat="50.68729" lon="4.22211">
        <ele>47.24</ele>
        <time>2018-02-04T09:45:52Z</time>
      </trkpt>
      <trkpt lat="50.6873" lon="4.22179">
        <ele>46.28</ele>
        <time>2018-02-04T09:46:07Z</time>
      </trkpt>
      <trkpt lat="50.68723" lon="4.22159">
        <ele>43.88</ele>
        <time>2018-02-04T09:46:20Z</time>
      </trkpt>
      <trkpt lat="50.68723" lon="4.22157">
        <ele>43.88</ele>
        <time>2018-02-04T09:46:21Z</time>
      </trkpt>
      <trkpt lat="50.68725" lon="4.22152">
        <ele>43.4</ele>
        <time>2018-02-04T09:46:25Z</time>
      </trkpt>
      <trkpt lat="50.6873" lon="4.22144">
        <ele>43.4</ele>
        <time>2018-02-04T09:46:31Z</time>
      </trkpt>
      <trkpt lat="50.68734" lon="4.22133">
        <ele>43.4</ele>
        <time>2018-02-04T09:46:38Z</time>
      </trkpt>
      <trkpt lat="50.68742" lon="4.22126">
        <ele>43.4</ele>
        <time>2018-02-04T09:46:46Z</time>
      </trkpt>
      <trkpt lat="50.68746" lon="4.22123">
        <ele>43.4</ele>
        <time>2018-02-04T09:46:50Z</time>
      </trkpt>
      <trkpt lat="50.68771" lon="4.22108">
        <ele>42.44</ele>
        <time>2018-02-04T09:47:09Z</time>
      </trkpt>
      <trkpt lat="50.68791" lon="4.22097">
        <ele>42.92</ele>
        <time>2018-02-04T09:47:23Z</time>
      </trkpt>
      <trkpt lat="50.68799" lon="4.22088">
        <ele>42.92</ele>
        <time>2018-02-04T09:47:36Z</time>
      </trkpt>
      <trkpt lat="50.68805" lon="4.22068">
        <ele>42.92</ele>
        <time>2018-02-04T09:47:47Z</time>
      </trkpt>
      <trkpt lat="50.68805" lon="4.22065">
        <ele>42.92</ele>
        <time>2018-02-04T09:47:49Z</time>
      </trkpt>
      <trkpt lat="50.68805" lon="4.22039">
        <ele>42.92</ele>
        <time>2018-02-04T09:48:02Z</time>
      </trkpt>
      <trkpt lat="50.68805" lon="4.22037">
        <ele>42.92</ele>
        <time>2018-02-04T09:48:03Z</time>
      </trkpt>
      <trkpt lat="50.68804" lon="4.22025">
        <ele>42.92</ele>
        <time>2018-02-04T09:48:09Z</time>
      </trkpt>
      <trkpt lat="50.68803" lon="4.22007">
        <ele>42.92</ele>
        <time>2018-02-04T09:48:17Z</time>
      </trkpt>
      <trkpt lat="50.688" lon="4.21975">
        <ele>42.44</ele>
        <time>2018-02-04T09:48:31Z</time>
      </trkpt>
      <trkpt lat="50.68799" lon="4.21947">
        <ele>41.95</ele>
        <time>2018-02-04T09:48:44Z</time>
      </trkpt>
      <trkpt lat="50.68798" lon="4.21914">
        <ele>40.99</ele>
        <time>2018-02-04T09:48:59Z</time>
      </trkpt>
      <trkpt lat="50.68796" lon="4.21891">
        <ele>40.51</ele>
        <time>2018-02-04T09:49:10Z</time>
      </trkpt>
      <trkpt lat="50.68795" lon="4.21853">
        <ele>39.07</ele>
        <time>2018-02-04T09:49:28Z</time>
      </trkpt>
      <trkpt lat="50.68799" lon="4.21818">
        <ele>38.11</ele>
        <time>2018-02-04T09:49:45Z</time>
      </trkpt>
      <trkpt lat="50.68809" lon="4.21787">
        <ele>37.15</ele>
        <time>2018-02-04T09:50:01Z</time>
      </trkpt>
      <trkpt lat="50.68816" lon="4.21761">
        <ele>36.67</ele>
        <time>2018-02-04T09:50:13Z</time>
      </trkpt>
      <trkpt lat="50.68822" lon="4.21732">
        <ele>36.67</ele>
        <time>2018-02-04T09:50:27Z</time>
      </trkpt>
      <trkpt lat="50.68831" lon="4.21701">
        <ele>36.67</ele>
        <time>2018-02-04T09:50:43Z</time>
      </trkpt>
      <trkpt lat="50.68837" lon="4.21674">
        <ele>36.67</ele>
        <time>2018-02-04T09:50:56Z</time>
      </trkpt>
      <trkpt lat="50.68846" lon="4.21647">
        <ele>36.67</ele>
        <time>2018-02-04T09:51:10Z</time>
      </trkpt>
      <trkpt lat="50.68862" lon="4.21616">
        <ele>36.67</ele>
        <time>2018-02-04T09:51:29Z</time>
      </trkpt>
      <trkpt lat="50.68879" lon="4.21586">
        <ele>37.15</ele>
        <time>2018-02-04T09:51:48Z</time>
      </trkpt>
      <trkpt lat="50.68891" lon="4.21566">
        <ele>37.15</ele>
        <time>2018-02-04T09:52:01Z</time>
      </trkpt>
      <trkpt lat="50.689" lon="4.21545">
        <ele>37.15</ele>
        <time>2018-02-04T09:52:14Z</time>
      </trkpt>
      <trkpt lat="50.68909" lon="4.21521">
        <ele>37.15</ele>
        <time>2018-02-04T09:52:28Z</time>
      </trkpt>
      <trkpt lat="50.68912" lon="4.21511">
        <ele>37.15</ele>
        <time>2018-02-04T09:52:34Z</time>
      </trkpt>
      <trkpt lat="50.68912" lon="4.21508">
        <ele>37.15</ele>
        <time>2018-02-04T09:52:36Z</time>
      </trkpt>
      <trkpt lat="50.68901" lon="4.21495">
        <ele>37.15</ele>
        <time>2018-02-04T09:52:50Z</time>
      </trkpt>
      <trkpt lat="50.68886" lon="4.21505">
        <ele>39.07</ele>
        <time>2018-02-04T09:53:06Z</time>
      </trkpt>
      <trkpt lat="50.68866" lon="4.21519">
        <ele>40.03</ele>
        <time>2018-02-04T09:53:21Z</time>
      </trkpt>
      <trkpt lat="50.68849" lon="4.21524">
        <ele>40.51</ele>
        <time>2018-02-04T09:53:35Z</time>
      </trkpt>
      <trkpt lat="50.68847" lon="4.21525">
        <ele>40.51</ele>
        <time>2018-02-04T09:53:37Z</time>
      </trkpt>
      <trkpt lat="50.68843" lon="4.21525">
        <ele>40.51</ele>
        <time>2018-02-04T09:53:39Z</time>
      </trkpt>
      <trkpt lat="50.68825" lon="4.2153">
        <ele>40.51</ele>
        <time>2018-02-04T09:53:53Z</time>
      </trkpt>
      <trkpt lat="50.6881" lon="4.21536">
        <ele>39.55</ele>
        <time>2018-02-04T09:54:06Z</time>
      </trkpt>
      <trkpt lat="50.68791" lon="4.21538">
        <ele>39.07</ele>
        <time>2018-02-04T09:54:18Z</time>
      </trkpt>
      <trkpt lat="50.68771" lon="4.21536">
        <ele>38.59</ele>
        <time>2018-02-04T09:54:32Z</time>
      </trkpt>
      <trkpt lat="50.68755" lon="4.21523">
        <ele>38.59</ele>
        <time>2018-02-04T09:54:45Z</time>
      </trkpt>
      <trkpt lat="50.68743" lon="4.21506">
        <ele>38.59</ele>
        <time>2018-02-04T09:54:58Z</time>
      </trkpt>
      <trkpt lat="50.68731" lon="4.21483">
        <ele>38.59</ele>
        <time>2018-02-04T09:55:14Z</time>
      </trkpt>
      <trkpt lat="50.68729" lon="4.21479">
        <ele>38.59</ele>
        <time>2018-02-04T09:55:16Z</time>
      </trkpt>
      <trkpt lat="50.68725" lon="4.2147">
        <ele>38.59</ele>
        <time>2018-02-04T09:55:21Z</time>
      </trkpt>
      <trkpt lat="50.68706" lon="4.21444">
        <ele>38.59</ele>
        <time>2018-02-04T09:55:37Z</time>
      </trkpt>
      <trkpt lat="50.68692" lon="4.21421">
        <ele>38.59</ele>
        <time>2018-02-04T09:55:52Z</time>
      </trkpt>
      <trkpt lat="50.68679" lon="4.21402">
        <ele>38.59</ele>
        <time>2018-02-04T09:56:07Z</time>
      </trkpt>
      <trkpt lat="50.68676" lon="4.21396">
        <ele>38.59</ele>
        <time>2018-02-04T09:56:18Z</time>
      </trkpt>
      <trkpt lat="50.68672" lon="4.21388">
        <ele>38.59</ele>
        <time>2018-02-04T09:56:24Z</time>
      </trkpt>
      <trkpt lat="50.68666" lon="4.21381">
        <ele>38.59</ele>
        <time>2018-02-04T09:56:30Z</time>
      </trkpt>
      <trkpt lat="50.68653" lon="4.21362">
        <ele>38.59</ele>
        <time>2018-02-04T09:56:44Z</time>
      </trkpt>
      <trkpt lat="50.68642" lon="4.21341">
        <ele>38.59</ele>
        <time>2018-02-04T09:56:57Z</time>
      </trkpt>
      <trkpt lat="50.68632" lon="4.21327">
        <ele>38.59</ele>
        <time>2018-02-04T09:57:08Z</time>
      </trkpt>
      <trkpt lat="50.6862" lon="4.213">
        <ele>40.03</ele>
        <time>2018-02-04T09:57:26Z</time>
      </trkpt>
      <trkpt lat="50.68611" lon="4.21283">
        <ele>40.51</ele>
        <time>2018-02-04T09:57:40Z</time>
      </trkpt>
      <trkpt lat="50.68602" lon="4.21269">
        <ele>41.95</ele>
        <time>2018-02-04T09:57:53Z</time>
      </trkpt>
      <trkpt lat="50.68586" lon="4.21252">
        <ele>43.4</ele>
        <time>2018-02-04T09:58:09Z</time>
      </trkpt>
      <trkpt lat="50.68571" lon="4.2124">
        <ele>44.36</ele>
        <time>2018-02-04T09:58:22Z</time>
      </trkpt>
      <trkpt lat="50.68556" lon="4.21219">
        <ele>46.28</ele>
        <time>2018-02-04T09:58:37Z</time>
      </trkpt>
      <trkpt lat="50.68546" lon="4.21204">
        <ele>47.72</ele>
        <time>2018-02-04T09:58:47Z</time>
      </trkpt>
      <trkpt lat="50.6853" lon="4.21183">
        <ele>49.65</ele>
        <time>2018-02-04T09:59:03Z</time>
      </trkpt>
      <trkpt lat="50.68517" lon="4.21171">
        <ele>51.09</ele>
        <time>2018-02-04T09:59:15Z</time>
      </trkpt>
      <trkpt lat="50.68511" lon="4.21179">
        <ele>52.05</ele>
        <time>2018-02-04T09:59:24Z</time>
      </trkpt>
      <trkpt lat="50.68502" lon="4.21201">
        <ele>52.53</ele>
        <time>2018-02-04T09:59:39Z</time>
      </trkpt>
      <trkpt lat="50.68501" lon="4.21203">
        <ele>52.53</ele>
        <time>2018-02-04T09:59:40Z</time>
      </trkpt>
      <trkpt lat="50.6849" lon="4.21217">
        <ele>52.53</ele>
        <time>2018-02-04T09:59:53Z</time>
      </trkpt>
      <trkpt lat="50.68471" lon="4.21221">
        <ele>53.49</ele>
        <time>2018-02-04T10:00:06Z</time>
      </trkpt>
      <trkpt lat="50.68469" lon="4.21221">
        <ele>53.97</ele>
        <time>2018-02-04T10:00:07Z</time>
      </trkpt>
      <trkpt lat="50.68464" lon="4.21217">
        <ele>54.45</ele>
        <time>2018-02-04T10:00:11Z</time>
      </trkpt>
      <trkpt lat="50.68448" lon="4.21198">
        <ele>55.89</ele>
        <time>2018-02-04T10:00:26Z</time>
      </trkpt>
      <trkpt lat="50.68447" lon="4.21197">
        <ele>55.89</ele>
        <time>2018-02-04T10:00:27Z</time>
      </trkpt>
      <trkpt lat="50.68429" lon="4.21177">
        <ele>57.34</ele>
        <time>2018-02-04T10:00:43Z</time>
      </trkpt>
      <trkpt lat="50.68417" lon="4.21163">
        <ele>58.78</ele>
        <time>2018-02-04T10:00:54Z</time>
      </trkpt>
      <trkpt lat="50.68404" lon="4.21143">
        <ele>59.74</ele>
        <time>2018-02-04T10:01:08Z</time>
      </trkpt>
      <trkpt lat="50.68399" lon="4.21138">
        <ele>60.7</ele>
        <time>2018-02-04T10:01:13Z</time>
      </trkpt>
      <trkpt lat="50.68388" lon="4.2112">
        <ele>61.18</ele>
        <time>2018-02-04T10:01:25Z</time>
      </trkpt>
      <trkpt lat="50.68384" lon="4.21115">
        <ele>61.66</ele>
        <time>2018-02-04T10:01:29Z</time>
      </trkpt>
      <trkpt lat="50.68382" lon="4.21112">
        <ele>62.14</ele>
        <time>2018-02-04T10:01:31Z</time>
      </trkpt>
      <trkpt lat="50.68376" lon="4.21103">
        <ele>62.62</ele>
        <time>2018-02-04T10:01:37Z</time>
      </trkpt>
      <trkpt lat="50.68373" lon="4.21103">
        <ele>62.62</ele>
        <time>2018-02-04T10:01:39Z</time>
      </trkpt>
      <trkpt lat="50.68365" lon="4.21087">
        <ele>63.1</ele>
        <time>2018-02-04T10:01:48Z</time>
      </trkpt>
      <trkpt lat="50.68361" lon="4.21082">
        <ele>63.1</ele>
        <time>2018-02-04T10:01:52Z</time>
      </trkpt>
      <trkpt lat="50.68349" lon="4.21066">
        <ele>64.07</ele>
        <time>2018-02-04T10:02:04Z</time>
      </trkpt>
      <trkpt lat="50.68343" lon="4.21061">
        <ele>64.07</ele>
        <time>2018-02-04T10:02:09Z</time>
      </trkpt>
      <trkpt lat="50.68328" lon="4.21041">
        <ele>65.03</ele>
        <time>2018-02-04T10:02:25Z</time>
      </trkpt>
      <trkpt lat="50.68322" lon="4.21033">
        <ele>65.03</ele>
        <time>2018-02-04T10:02:31Z</time>
      </trkpt>
      <trkpt lat="50.68314" lon="4.21013">
        <ele>65.99</ele>
        <time>2018-02-04T10:02:44Z</time>
      </trkpt>
      <trkpt lat="50.68311" lon="4.21">
        <ele>65.99</ele>
        <time>2018-02-04T10:02:51Z</time>
      </trkpt>
      <trkpt lat="50.68303" lon="4.20981">
        <ele>65.99</ele>
        <time>2018-02-04T10:03:03Z</time>
      </trkpt>
      <trkpt lat="50.68296" lon="4.2097">
        <ele>65.99</ele>
        <time>2018-02-04T10:03:10Z</time>
      </trkpt>
      <trkpt lat="50.68294" lon="4.20966">
        <ele>65.99</ele>
        <time>2018-02-04T10:03:12Z</time>
      </trkpt>
      <trkpt lat="50.68285" lon="4.2095">
        <ele>66.47</ele>
        <time>2018-02-04T10:03:25Z</time>
      </trkpt>
      <trkpt lat="50.68285" lon="4.2095">
        <ele>66.47</ele>
        <time>2018-02-04T10:03:26Z</time>
      </trkpt>
      <trkpt lat="50.68289" lon="4.20946">
        <ele>66.47</ele>
        <time>2018-02-04T10:03:30Z</time>
      </trkpt>
      <trkpt lat="50.68288" lon="4.20933">
        <ele>66.47</ele>
        <time>2018-02-04T10:03:37Z</time>
      </trkpt>
      <trkpt lat="50.68287" lon="4.20909">
        <ele>65.03</ele>
        <time>2018-02-04T10:03:46Z</time>
      </trkpt>
      <trkpt lat="50.68285" lon="4.20875">
        <ele>64.55</ele>
        <time>2018-02-04T10:04:02Z</time>
      </trkpt>
      <trkpt lat="50.68286" lon="4.20845">
        <ele>63.58</ele>
        <time>2018-02-04T10:04:16Z</time>
      </trkpt>
      <trkpt lat="50.6829" lon="4.20813">
        <ele>63.1</ele>
        <time>2018-02-04T10:04:32Z</time>
      </trkpt>
      <trkpt lat="50.68294" lon="4.20794">
        <ele>62.62</ele>
        <time>2018-02-04T10:04:40Z</time>
      </trkpt>
      <trkpt lat="50.68301" lon="4.20768">
        <ele>62.14</ele>
        <time>2018-02-04T10:04:55Z</time>
      </trkpt>
      <trkpt lat="50.68307" lon="4.20747">
        <ele>61.66</ele>
        <time>2018-02-04T10:05:08Z</time>
      </trkpt>
      <trkpt lat="50.68311" lon="4.2073">
        <ele>61.66</ele>
        <time>2018-02-04T10:05:18Z</time>
      </trkpt>
      <trkpt lat="50.68319" lon="4.20704">
        <ele>61.66</ele>
        <time>2018-02-04T10:05:31Z</time>
      </trkpt>
      <trkpt lat="50.68326" lon="4.20684">
        <ele>61.18</ele>
        <time>2018-02-04T10:05:42Z</time>
      </trkpt>
      <trkpt lat="50.68331" lon="4.20661">
        <ele>61.18</ele>
        <time>2018-02-04T10:05:52Z</time>
      </trkpt>
      <trkpt lat="50.68337" lon="4.2064">
        <ele>60.7</ele>
        <time>2018-02-04T10:06:04Z</time>
      </trkpt>
      <trkpt lat="50.68339" lon="4.20634">
        <ele>60.7</ele>
        <time>2018-02-04T10:06:07Z</time>
      </trkpt>
      <trkpt lat="50.68344" lon="4.20624">
        <ele>60.22</ele>
        <time>2018-02-04T10:06:14Z</time>
      </trkpt>
      <trkpt lat="50.68346" lon="4.20611">
        <ele>58.78</ele>
        <time>2018-02-04T10:06:21Z</time>
      </trkpt>
      <trkpt lat="50.68351" lon="4.20583">
        <ele>57.82</ele>
        <time>2018-02-04T10:06:33Z</time>
      </trkpt>
      <trkpt lat="50.68351" lon="4.20582">
        <ele>57.82</ele>
        <time>2018-02-04T10:06:34Z</time>
      </trkpt>
      <trkpt lat="50.68356" lon="4.20559">
        <ele>55.41</ele>
        <time>2018-02-04T10:06:47Z</time>
      </trkpt>
      <trkpt lat="50.68362" lon="4.20535">
        <ele>54.45</ele>
        <time>2018-02-04T10:06:59Z</time>
      </trkpt>
      <trkpt lat="50.6837" lon="4.20513">
        <ele>53.01</ele>
        <time>2018-02-04T10:07:11Z</time>
      </trkpt>
      <trkpt lat="50.68371" lon="4.20508">
        <ele>52.53</ele>
        <time>2018-02-04T10:07:14Z</time>
      </trkpt>
      <trkpt lat="50.68373" lon="4.20504">
        <ele>52.05</ele>
        <time>2018-02-04T10:07:16Z</time>
      </trkpt>
      <trkpt lat="50.6838" lon="4.20481">
        <ele>50.13</ele>
        <time>2018-02-04T10:07:28Z</time>
      </trkpt>
      <trkpt lat="50.68384" lon="4.20462">
        <ele>48.2</ele>
        <time>2018-02-04T10:07:42Z</time>
      </trkpt>
      <trkpt lat="50.68391" lon="4.20438">
        <ele>46.28</ele>
        <time>2018-02-04T10:07:54Z</time>
      </trkpt>
      <trkpt lat="50.68405" lon="4.20399">
        <ele>45.32</ele>
        <time>2018-02-04T10:08:05Z</time>
      </trkpt>
      <trkpt lat="50.68408" lon="4.20392">
        <ele>44.84</ele>
        <time>2018-02-04T10:08:08Z</time>
      </trkpt>
      <trkpt lat="50.68408" lon="4.20391">
        <ele>44.84</ele>
        <time>2018-02-04T10:08:09Z</time>
      </trkpt>
      <trkpt lat="50.68409" lon="4.20389">
        <ele>43.88</ele>
        <time>2018-02-04T10:08:10Z</time>
      </trkpt>
      <trkpt lat="50.6841" lon="4.20387">
        <ele>43.88</ele>
        <time>2018-02-04T10:08:11Z</time>
      </trkpt>
      <trkpt lat="50.6841" lon="4.20385">
        <ele>43.88</ele>
        <time>2018-02-04T10:08:12Z</time>
      </trkpt>
      <trkpt lat="50.68411" lon="4.20383">
        <ele>43.88</ele>
        <time>2018-02-04T10:08:13Z</time>
      </trkpt>
      <trkpt lat="50.68412" lon="4.20381">
        <ele>43.88</ele>
        <time>2018-02-04T10:08:14Z</time>
      </trkpt>
      <trkpt lat="50.68412" lon="4.20379">
        <ele>42.92</ele>
        <time>2018-02-04T10:08:15Z</time>
      </trkpt>
      <trkpt lat="50.68413" lon="4.20376">
        <ele>42.92</ele>
        <time>2018-02-04T10:08:16Z</time>
      </trkpt>
      <trkpt lat="50.68419" lon="4.20348">
        <ele>41.47</ele>
        <time>2018-02-04T10:08:30Z</time>
      </trkpt>
      <trkpt lat="50.68428" lon="4.20317">
        <ele>39.55</ele>
        <time>2018-02-04T10:08:48Z</time>
      </trkpt>
      <trkpt lat="50.68432" lon="4.20306">
        <ele>39.55</ele>
        <time>2018-02-04T10:08:53Z</time>
      </trkpt>
      <trkpt lat="50.68432" lon="4.20304">
        <ele>39.55</ele>
        <time>2018-02-04T10:08:54Z</time>
      </trkpt>
      <trkpt lat="50.68429" lon="4.20294">
        <ele>39.07</ele>
        <time>2018-02-04T10:09:00Z</time>
      </trkpt>
      <trkpt lat="50.68429" lon="4.20292">
        <ele>39.07</ele>
        <time>2018-02-04T10:09:01Z</time>
      </trkpt>
      <trkpt lat="50.68429" lon="4.2029">
        <ele>39.07</ele>
        <time>2018-02-04T10:09:02Z</time>
      </trkpt>
      <trkpt lat="50.6843" lon="4.20288">
        <ele>39.07</ele>
        <time>2018-02-04T10:09:03Z</time>
      </trkpt>
      <trkpt lat="50.6843" lon="4.20286">
        <ele>39.07</ele>
        <time>2018-02-04T10:09:04Z</time>
      </trkpt>
      <trkpt lat="50.68434" lon="4.20276">
        <ele>39.07</ele>
        <time>2018-02-04T10:09:09Z</time>
      </trkpt>
      <trkpt lat="50.68435" lon="4.20276">
        <ele>39.07</ele>
        <time>2018-02-04T10:09:10Z</time>
      </trkpt>
      <trkpt lat="50.68436" lon="4.20276">
        <ele>39.07</ele>
        <time>2018-02-04T10:09:11Z</time>
      </trkpt>
      <trkpt lat="50.68438" lon="4.20276">
        <ele>39.07</ele>
        <time>2018-02-04T10:09:12Z</time>
      </trkpt>
      <trkpt lat="50.68439" lon="4.20276">
        <ele>39.07</ele>
        <time>2018-02-04T10:09:13Z</time>
      </trkpt>
      <trkpt lat="50.6844" lon="4.20276">
        <ele>39.07</ele>
        <time>2018-02-04T10:09:14Z</time>
      </trkpt>
      <trkpt lat="50.68442" lon="4.20276">
        <ele>39.07</ele>
        <time>2018-02-04T10:09:15Z</time>
      </trkpt>
      <trkpt lat="50.68445" lon="4.20278">
        <ele>39.07</ele>
        <time>2018-02-04T10:09:17Z</time>
      </trkpt>
      <trkpt lat="50.68446" lon="4.20279">
        <ele>39.07</ele>
        <time>2018-02-04T10:09:18Z</time>
      </trkpt>
      <trkpt lat="50.68447" lon="4.20279">
        <ele>39.07</ele>
        <time>2018-02-04T10:09:19Z</time>
      </trkpt>
      <trkpt lat="50.68448" lon="4.2028">
        <ele>39.07</ele>
        <time>2018-02-04T10:09:20Z</time>
      </trkpt>
      <trkpt lat="50.68449" lon="4.20281">
        <ele>39.07</ele>
        <time>2018-02-04T10:09:21Z</time>
      </trkpt>
      <trkpt lat="50.68451" lon="4.20281">
        <ele>39.07</ele>
        <time>2018-02-04T10:09:22Z</time>
      </trkpt>
      <trkpt lat="50.68452" lon="4.20281">
        <ele>39.07</ele>
        <time>2018-02-04T10:09:23Z</time>
      </trkpt>
      <trkpt lat="50.68453" lon="4.20282">
        <ele>39.07</ele>
        <time>2018-02-04T10:09:24Z</time>
      </trkpt>
      <trkpt lat="50.68455" lon="4.20282">
        <ele>39.07</ele>
        <time>2018-02-04T10:09:25Z</time>
      </trkpt>
      <trkpt lat="50.68456" lon="4.20282">
        <ele>39.07</ele>
        <time>2018-02-04T10:09:26Z</time>
      </trkpt>
      <trkpt lat="50.68457" lon="4.20283">
        <ele>39.07</ele>
        <time>2018-02-04T10:09:27Z</time>
      </trkpt>
      <trkpt lat="50.68458" lon="4.20283">
        <ele>39.07</ele>
        <time>2018-02-04T10:09:28Z</time>
      </trkpt>
      <trkpt lat="50.68459" lon="4.20283">
        <ele>39.07</ele>
        <time>2018-02-04T10:09:29Z</time>
      </trkpt>
      <trkpt lat="50.68461" lon="4.20284">
        <ele>39.07</ele>
        <time>2018-02-04T10:09:30Z</time>
      </trkpt>
      <trkpt lat="50.68463" lon="4.20286">
        <ele>39.07</ele>
        <time>2018-02-04T10:09:32Z</time>
      </trkpt>
      <trkpt lat="50.6848" lon="4.20291">
        <ele>39.07</ele>
        <time>2018-02-04T10:09:46Z</time>
      </trkpt>
      <trkpt lat="50.68497" lon="4.20294">
        <ele>38.59</ele>
        <time>2018-02-04T10:09:59Z</time>
      </trkpt>
      <trkpt lat="50.68511" lon="4.20296">
        <ele>38.59</ele>
        <time>2018-02-04T10:10:10Z</time>
      </trkpt>
      <trkpt lat="50.68529" lon="4.2029">
        <ele>38.59</ele>
        <time>2018-02-04T10:10:25Z</time>
      </trkpt>
      <trkpt lat="50.68541" lon="4.2029">
        <ele>38.59</ele>
        <time>2018-02-04T10:10:39Z</time>
      </trkpt>
      <trkpt lat="50.68562" lon="4.20262">
        <ele>38.11</ele>
        <time>2018-02-04T10:10:55Z</time>
      </trkpt>
      <trkpt lat="50.68562" lon="4.20261">
        <ele>37.63</ele>
        <time>2018-02-04T10:11:02Z</time>
      </trkpt>
      <trkpt lat="50.68562" lon="4.20262">
        <ele>37.63</ele>
        <time>2018-02-04T10:11:03Z</time>
      </trkpt>
      <trkpt lat="50.6855" lon="4.20256">
        <ele>36.67</ele>
        <time>2018-02-04T10:11:15Z</time>
      </trkpt>
      <trkpt lat="50.68548" lon="4.20256">
        <ele>36.67</ele>
        <time>2018-02-04T10:11:16Z</time>
      </trkpt>
      <trkpt lat="50.68547" lon="4.20255">
        <ele>36.19</ele>
        <time>2018-02-04T10:11:17Z</time>
      </trkpt>
      <trkpt lat="50.68545" lon="4.20255">
        <ele>36.19</ele>
        <time>2018-02-04T10:11:18Z</time>
      </trkpt>
      <trkpt lat="50.68544" lon="4.20255">
        <ele>36.19</ele>
        <time>2018-02-04T10:11:19Z</time>
      </trkpt>
      <trkpt lat="50.68542" lon="4.20254">
        <ele>36.19</ele>
        <time>2018-02-04T10:11:20Z</time>
      </trkpt>
      <trkpt lat="50.68533" lon="4.20247">
        <ele>35.71</ele>
        <time>2018-02-04T10:11:29Z</time>
      </trkpt>
      <trkpt lat="50.68532" lon="4.20246">
        <ele>35.71</ele>
        <time>2018-02-04T10:11:30Z</time>
      </trkpt>
      <trkpt lat="50.68531" lon="4.20246">
        <ele>35.71</ele>
        <time>2018-02-04T10:11:31Z</time>
      </trkpt>
      <trkpt lat="50.68529" lon="4.20245">
        <ele>35.71</ele>
        <time>2018-02-04T10:11:32Z</time>
      </trkpt>
      <trkpt lat="50.68528" lon="4.20245">
        <ele>35.71</ele>
        <time>2018-02-04T10:11:33Z</time>
      </trkpt>
      <trkpt lat="50.68527" lon="4.20245">
        <ele>35.71</ele>
        <time>2018-02-04T10:11:34Z</time>
      </trkpt>
      <trkpt lat="50.68525" lon="4.20245">
        <ele>35.71</ele>
        <time>2018-02-04T10:11:35Z</time>
      </trkpt>
      <trkpt lat="50.68506" lon="4.20238">
        <ele>35.71</ele>
        <time>2018-02-04T10:11:49Z</time>
      </trkpt>
      <trkpt lat="50.68494" lon="4.20229">
        <ele>35.71</ele>
        <time>2018-02-04T10:11:59Z</time>
      </trkpt>
      <trkpt lat="50.68483" lon="4.20223">
        <ele>35.71</ele>
        <time>2018-02-04T10:12:09Z</time>
      </trkpt>
      <trkpt lat="50.68471" lon="4.20218">
        <ele>35.71</ele>
        <time>2018-02-04T10:12:19Z</time>
      </trkpt>
      <trkpt lat="50.68468" lon="4.20206">
        <ele>35.71</ele>
        <time>2018-02-04T10:12:24Z</time>
      </trkpt>
      <trkpt lat="50.68476" lon="4.20179">
        <ele>35.71</ele>
        <time>2018-02-04T10:12:37Z</time>
      </trkpt>
      <trkpt lat="50.68482" lon="4.20171">
        <ele>36.67</ele>
        <time>2018-02-04T10:12:44Z</time>
      </trkpt>
      <trkpt lat="50.68483" lon="4.20169">
        <ele>36.67</ele>
        <time>2018-02-04T10:12:45Z</time>
      </trkpt>
      <trkpt lat="50.68484" lon="4.20152">
        <ele>36.67</ele>
        <time>2018-02-04T10:12:56Z</time>
      </trkpt>
      <trkpt lat="50.68494" lon="4.20117">
        <ele>37.15</ele>
        <time>2018-02-04T10:13:13Z</time>
      </trkpt>
      <trkpt lat="50.68501" lon="4.20101">
        <ele>37.63</ele>
        <time>2018-02-04T10:13:27Z</time>
      </trkpt>
      <trkpt lat="50.68501" lon="4.20103">
        <ele>37.63</ele>
        <time>2018-02-04T10:13:39Z</time>
      </trkpt>
      <trkpt lat="50.685" lon="4.20104">
        <ele>36.19</ele>
        <time>2018-02-04T10:13:47Z</time>
      </trkpt>
      <trkpt lat="50.68501" lon="4.20106">
        <ele>38.11</ele>
        <time>2018-02-04T10:13:50Z</time>
      </trkpt>
      <trkpt lat="50.68499" lon="4.20108">
        <ele>38.11</ele>
        <time>2018-02-04T10:14:00Z</time>
      </trkpt>
      <trkpt lat="50.68494" lon="4.20111">
        <ele>38.11</ele>
        <time>2018-02-04T10:14:04Z</time>
      </trkpt>
      <trkpt lat="50.68498" lon="4.20102">
        <ele>37.63</ele>
        <time>2018-02-04T10:14:06Z</time>
      </trkpt>
      <trkpt lat="50.68496" lon="4.20101">
        <ele>37.63</ele>
        <time>2018-02-04T10:14:09Z</time>
      </trkpt>
      <trkpt lat="50.68479" lon="4.20111">
        <ele>37.63</ele>
        <time>2018-02-04T10:14:18Z</time>
      </trkpt>
      <trkpt lat="50.68469" lon="4.20112">
        <ele>37.63</ele>
        <time>2018-02-04T10:14:25Z</time>
      </trkpt>
      <trkpt lat="50.68448" lon="4.20121">
        <ele>37.63</ele>
        <time>2018-02-04T10:14:40Z</time>
      </trkpt>
      <trkpt lat="50.68447" lon="4.20122">
        <ele>37.63</ele>
        <time>2018-02-04T10:14:41Z</time>
      </trkpt>
      <trkpt lat="50.68447" lon="4.20126">
        <ele>37.63</ele>
        <time>2018-02-04T10:14:51Z</time>
      </trkpt>
      <trkpt lat="50.68441" lon="4.20119">
        <ele>37.63</ele>
        <time>2018-02-04T10:15:04Z</time>
      </trkpt>
      <trkpt lat="50.68443" lon="4.2011">
        <ele>37.63</ele>
        <time>2018-02-04T10:15:20Z</time>
      </trkpt>
      <trkpt lat="50.68439" lon="4.20105">
        <ele>37.63</ele>
        <time>2018-02-04T10:15:37Z</time>
      </trkpt>
      <trkpt lat="50.68434" lon="4.20101">
        <ele>37.63</ele>
        <time>2018-02-04T10:16:04Z</time>
      </trkpt>
      <trkpt lat="50.68438" lon="4.20105">
        <ele>38.11</ele>
        <time>2018-02-04T10:16:27Z</time>
      </trkpt>
      <trkpt lat="50.68439" lon="4.2011">
        <ele>38.11</ele>
        <time>2018-02-04T10:17:01Z</time>
      </trkpt>
    </trkseg>
  </trk>
</gpx>